Wetterdaten: Freitag, 26.12.2014
Datum Zeit Temp. Aussen +5cm Feuchte Auss Luftdruck Regen Sonnenschein Regendauer Solar Windben
26.12.2014 00:00 1,7 C 0,6 C 96 % 1028,1 hPa 0,0 l/m 0 min 0 min 0 W/m 10,5 km/h (2 Bft)
26.12.2014 00:02 1,7 C 0,6 C 96 % 1028,1 hPa 0,0 l/m 0 min 0 min 0 W/m 14,6 km/h (3 Bft)
26.12.2014 00:05 1,7 C 0,6 C 96 % 1028,1 hPa 0,0 l/m 0 min 0 min 0 W/m 10,5 km/h (2 Bft)
26.12.2014 00:06 1,7 C 0,6 C 96 % 1028,1 hPa 0,0 l/m 0 min 0 min 0 W/m 10,5 km/h (2 Bft)
26.12.2014 00:08 1,7 C 0,6 C 96 % 1028,1 hPa 0,0 l/m 0 min 0 min 0 W/m 10,5 km/h (2 Bft)
26.12.2014 00:10 1,7 C 0,6 C 96 % 1028,1 hPa 0,0 l/m 0 min 0 min 0 W/m 6,3 km/h (2 Bft)
26.12.2014 00:12 1,7 C 0,0 C 96 % 1028,1 hPa 0,0 l/m 0 min 0 min 0 W/m 10,5 km/h (2 Bft)
26.12.2014 00:14 1,6 C 0,0 C 96 % 1028,0 hPa 0,0 l/m 0 min 0 min 0 W/m 10,5 km/h (2 Bft)
26.12.2014 00:16 1,6 C 0,0 C 96 % 1028,1 hPa 0,0 l/m 0 min 0 min 0 W/m 8,4 km/h (2 Bft)
26.12.2014 00:18 1,6 C 0,0 C 96 % 1028,1 hPa 0,0 l/m 0 min 0 min 0 W/m 8,4 km/h (2 Bft)
26.12.2014 00:20 1,6 C 0,0 C 96 % 1028,2 hPa 0,0 l/m 0 min 0 min 0 W/m 8,4 km/h (2 Bft)
26.12.2014 00:22 1,6 C 0,0 C 96 % 1028,2 hPa 0,0 l/m 0 min 0 min 0 W/m 8,4 km/h (2 Bft)
26.12.2014 00:24 1,6 C 0,0 C 96 % 1028,1 hPa 0,0 l/m 0 min 0 min 0 W/m 8,4 km/h (2 Bft)
26.12.2014 00:26 1,6 C 0,0 C 96 % 1028,2 hPa 0,0 l/m 0 min 0 min 0 W/m 10,5 km/h (2 Bft)
26.12.2014 00:28 1,6 C 0,0 C 96 % 1028,2 hPa 0,0 l/m 0 min 0 min 0 W/m 8,4 km/h (2 Bft)
26.12.2014 00:30 1,6 C 0,0 C 96 % 1028,3 hPa 0,0 l/m 0 min 0 min 0 W/m 8,4 km/h (2 Bft)
26.12.2014 00:32 1,5 C 0,0 C 96 % 1028,2 hPa 0,0 l/m 0 min 0 min 0 W/m 8,4 km/h (2 Bft)
26.12.2014 00:34 1,5 C 0,0 C 96 % 1028,2 hPa 0,0 l/m 0 min 0 min 0 W/m 10,5 km/h (2 Bft)
26.12.2014 00:36 1,5 C 0,0 C 96 % 1028,2 hPa 0,0 l/m 0 min 0 min 0 W/m 8,4 km/h (2 Bft)
26.12.2014 00:38 1,5 C 0,0 C 96 % 1028,2 hPa 0,0 l/m 0 min 0 min 0 W/m 6,3 km/h (2 Bft)
26.12.2014 00:40 1,5 C 0,0 C 96 % 1028,2 hPa 0,0 l/m 0 min 0 min 0 W/m 10,5 km/h (2 Bft)
26.12.2014 00:42 1,4 C 0,0 C 96 % 1028,2 hPa 0,0 l/m 0 min 0 min 0 W/m 6,3 km/h (2 Bft)
26.12.2014 00:44 1,4 C 0,0 C 96 % 1028,2 hPa 0,0 l/m 0 min 0 min 0 W/m 6,3 km/h (2 Bft)
26.12.2014 00:46 1,4 C 0,0 C 96 % 1028,2 hPa 0,0 l/m 0 min 0 min 0 W/m 8,4 km/h (2 Bft)
26.12.2014 00:48 1,4 C 0,0 C 96 % 1028,2 hPa 0,0 l/m 0 min 0 min 0 W/m 6,3 km/h (2 Bft)
26.12.2014 00:50 1,4 C 0,0 C 96 % 1028,2 hPa 0,0 l/m 0 min 0 min 0 W/m 8,4 km/h (2 Bft)
26.12.2014 00:52 1,4 C 0,0 C 96 % 1028,2 hPa 0,0 l/m 0 min 0 min 0 W/m 6,3 km/h (2 Bft)
26.12.2014 00:54 1,4 C 0,0 C 96 % 1028,3 hPa 0,0 l/m 0 min 0 min 0 W/m 6,3 km/h (2 Bft)
26.12.2014 00:56 1,4 C 0,0 C 96 % 1028,3 hPa 0,0 l/m 0 min 0 min 0 W/m 10,5 km/h (2 Bft)
26.12.2014 00:58 1,4 C 0,0 C 96 % 1028,3 hPa 0,0 l/m 0 min 0 min 0 W/m 8,4 km/h (2 Bft)
26.12.2014 01:00 1,4 C 0,0 C 96 % 1028,3 hPa 0,0 l/m 0 min 0 min 0 W/m 8,4 km/h (2 Bft)
26.12.2014 01:02 1,4 C 0,0 C 96 % 1028,3 hPa 0,0 l/m 0 min 0 min 0 W/m 6,3 km/h (2 Bft)
26.12.2014 01:04 1,4 C 0,0 C 96 % 1028,3 hPa 0,0 l/m 0 min 0 min 0 W/m 6,3 km/h (2 Bft)
26.12.2014 01:06 1,4 C 0,0 C 96 % 1028,3 hPa 0,0 l/m 0 min 0 min 0 W/m 6,3 km/h (2 Bft)
26.12.2014 01:08 1,3 C 0,0 C 96 % 1028,3 hPa 0,0 l/m 0 min 0 min 0 W/m 6,3 km/h (2 Bft)
26.12.2014 01:10 1,3 C 0,0 C 96 % 1028,4 hPa 0,0 l/m 0 min 0 min 0 W/m 10,5 km/h (2 Bft)
26.12.2014 01:12 1,3 C 0,0 C 96 % 1028,4 hPa 0,0 l/m 0 min 0 min 0 W/m 8,4 km/h (2 Bft)
26.12.2014 01:14 1,3 C 0,0 C 96 % 1028,3 hPa 0,0 l/m 0 min 0 min 0 W/m 8,4 km/h (2 Bft)
26.12.2014 01:16 1,3 C 0,0 C 96 % 1028,3 hPa 0,0 l/m 0 min 0 min 0 W/m 8,4 km/h (2 Bft)
26.12.2014 01:18 1,3 C 0,0 C 96 % 1028,3 hPa 0,0 l/m 0 min 0 min 0 W/m 8,4 km/h (2 Bft)
26.12.2014 01:20 1,3 C 0,0 C 96 % 1028,3 hPa 0,0 l/m 0 min 0 min 0 W/m 10,5 km/h (2 Bft)
26.12.2014 01:22 1,3 C 0,0 C 96 % 1028,3 hPa 0,0 l/m 0 min 0 min 0 W/m 8,4 km/h (2 Bft)
26.12.2014 01:24 1,3 C 0,0 C 96 % 1028,3 hPa 0,0 l/m 0 min 0 min 0 W/m 4,2 km/h (1 Bft)
26.12.2014 01:26 1,3 C 0,0 C 96 % 1028,4 hPa 0,0 l/m 0 min 0 min 0 W/m 6,3 km/h (2 Bft)
26.12.2014 01:28 1,3 C 0,0 C 96 % 1028,3 hPa 0,0 l/m 0 min 0 min 0 W/m 6,3 km/h (2 Bft)
26.12.2014 01:30 1,3 C 0,0 C 96 % 1028,3 hPa 0,0 l/m 0 min 0 min 0 W/m 8,4 km/h (2 Bft)
26.12.2014 01:32 1,3 C 0,0 C 96 % 1028,3 hPa 0,0 l/m 0 min 0 min 0 W/m 4,2 km/h (1 Bft)
26.12.2014 01:34 1,3 C 0,0 C 96 % 1028,3 hPa 0,0 l/m 0 min 0 min 0 W/m 6,3 km/h (2 Bft)
26.12.2014 01:36 1,3 C 0,0 C 96 % 1028,3 hPa 0,0 l/m 0 min 0 min 0 W/m 4,2 km/h (1 Bft)
26.12.2014 01:38 1,2 C -0,6 C 96 % 1028,3 hPa 0,0 l/m 0 min 0 min 0 W/m 6,3 km/h (2 Bft)
26.12.2014 01:40 1,2 C -0,6 C 96 % 1028,4 hPa 0,0 l/m 0 min 0 min 0 W/m 10,5 km/h (2 Bft)
26.12.2014 01:42 1,2 C 0,0 C 96 % 1028,4 hPa 0,0 l/m 0 min 0 min 0 W/m 10,5 km/h (2 Bft)
26.12.2014 01:44 1,2 C 0,0 C 96 % 1028,3 hPa 0,0 l/m 0 min 0 min 0 W/m 8,4 km/h (2 Bft)
26.12.2014 01:46 1,2 C 0,0 C 96 % 1028,3 hPa 0,0 l/m 0 min 0 min 0 W/m 6,3 km/h (2 Bft)
26.12.2014 01:48 1,2 C 0,0 C 96 % 1028,3 hPa 0,0 l/m 0 min 0 min 0 W/m 10,5 km/h (2 Bft)
26.12.2014 01:50 1,2 C 0,0 C 96 % 1028,3 hPa 0,0 l/m 0 min 0 min 0 W/m 8,4 km/h (2 Bft)
26.12.2014 01:52 1,2 C 0,0 C 97 % 1028,4 hPa 0,0 l/m 0 min 0 min 0 W/m 10,5 km/h (2 Bft)
26.12.2014 01:54 1,2 C 0,0 C 97 % 1028,3 hPa 0,0 l/m 0 min 0 min 0 W/m 6,3 km/h (2 Bft)
26.12.2014 01:56 1,2 C 0,0 C 97 % 1028,5 hPa 0,0 l/m 0 min 0 min 0 W/m 8,4 km/h (2 Bft)
26.12.2014 01:58 1,2 C 0,0 C 97 % 1028,4 hPa 0,0 l/m 0 min 0 min 0 W/m 10,5 km/h (2 Bft)
26.12.2014 02:00 1,1 C 0,0 C 97 % 1028,4 hPa 0,0 l/m 0 min 0 min 0 W/m 8,4 km/h (2 Bft)
26.12.2014 02:02 1,1 C 0,0 C 97 % 1028,4 hPa 0,0 l/m 0 min 0 min 0 W/m 6,3 km/h (2 Bft)
26.12.2014 02:04 1,1 C 0,0 C 97 % 1028,4 hPa 0,0 l/m 0 min 0 min 0 W/m 6,3 km/h (2 Bft)
26.12.2014 02:06 1,1 C 0,0 C 97 % 1028,4 hPa 0,0 l/m 0 min 0 min 0 W/m 6,3 km/h (2 Bft)
26.12.2014 02:08 1,1 C 0,0 C 97 % 1028,5 hPa 0,0 l/m 0 min 0 min 0 W/m 6,3 km/h (2 Bft)
26.12.2014 02:10 1,1 C 0,0 C 97 % 1028,5 hPa 0,0 l/m 0 min 0 min 0 W/m 6,3 km/h (2 Bft)
26.12.2014 02:12 1,1 C -0,6 C 97 % 1028,5 hPa 0,0 l/m 0 min 0 min 0 W/m 6,3 km/h (2 Bft)
26.12.2014 02:14 1,1 C -0,6 C 97 % 1028,5 hPa 0,0 l/m 0 min 0 min 0 W/m 4,2 km/h (1 Bft)
26.12.2014 02:16 1,1 C -0,6 C 97 % 1028,5 hPa 0,0 l/m 0 min 0 min 0 W/m 6,3 km/h (2 Bft)
26.12.2014 02:18 1,1 C -0,6 C 97 % 1028,6 hPa 0,0 l/m 0 min 0 min 0 W/m 6,3 km/h (2 Bft)
26.12.2014 02:20 1,0 C -0,6 C 97 % 1028,6 hPa 0,0 l/m 0 min 0 min 0 W/m 6,3 km/h (2 Bft)
26.12.2014 02:22 1,0 C -0,6 C 97 % 1028,6 hPa 0,0 l/m 0 min 0 min 0 W/m 10,5 km/h (2 Bft)
26.12.2014 02:24 1,0 C -0,6 C 97 % 1028,6 hPa 0,0 l/m 0 min 0 min 0 W/m 6,3 km/h (2 Bft)
26.12.2014 02:26 1,0 C -0,6 C 96 % 1028,6 hPa 0,0 l/m 0 min 0 min 0 W/m 6,3 km/h (2 Bft)
26.12.2014 02:28 0,9 C -0,6 C 96 % 1028,6 hPa 0,0 l/m 0 min 0 min 0 W/m 4,2 km/h (1 Bft)
26.12.2014 02:30 0,9 C -0,6 C 96 % 1028,6 hPa 0,0 l/m 0 min 0 min 0 W/m 8,4 km/h (2 Bft)
26.12.2014 02:32 0,9 C -0,6 C 96 % 1028,6 hPa 0,0 l/m 0 min 0 min 0 W/m 4,2 km/h (1 Bft)
26.12.2014 02:34 0,9 C -0,6 C 96 % 1028,7 hPa 0,0 l/m 0 min 0 min 0 W/m 10,5 km/h (2 Bft)
26.12.2014 02:36 0,9 C -0,6 C 96 % 1028,6 hPa 0,0 l/m 0 min 0 min 0 W/m 6,3 km/h (2 Bft)
26.12.2014 02:38 0,9 C 0,0 C 96 % 1028,6 hPa 0,0 l/m 0 min 0 min 0 W/m 6,3 km/h (2 Bft)
26.12.2014 02:40 0,9 C -0,6 C 96 % 1028,7 hPa 0,0 l/m 0 min 0 min 0 W/m 6,3 km/h (2 Bft)
26.12.2014 02:42 0,9 C -0,6 C 97 % 1028,7 hPa 0,0 l/m 0 min 0 min 0 W/m 6,3 km/h (2 Bft)
26.12.2014 02:44 0,8 C -0,6 C 97 % 1028,6 hPa 0,0 l/m 0 min 0 min 0 W/m 6,3 km/h (2 Bft)
26.12.2014 02:46 0,8 C -0,6 C 97 % 1028,7 hPa 0,0 l/m 0 min 0 min 0 W/m 6,3 km/h (2 Bft)
26.12.2014 02:48 0,8 C -0,6 C 97 % 1028,6 hPa 0,0 l/m 0 min 0 min 0 W/m 6,3 km/h (2 Bft)
26.12.2014 02:50 0,8 C -0,6 C 97 % 1028,6 hPa 0,0 l/m 0 min 0 min 0 W/m 4,2 km/h (1 Bft)
26.12.2014 02:52 0,8 C -0,6 C 97 % 1028,6 hPa 0,0 l/m 0 min 0 min 0 W/m 6,3 km/h (2 Bft)
26.12.2014 02:54 0,8 C -0,6 C 97 % 1028,6 hPa 0,0 l/m 0 min 0 min 0 W/m 6,3 km/h (2 Bft)
26.12.2014 02:56 0,8 C 0,0 C 97 % 1028,6 hPa 0,0 l/m 0 min 0 min 0 W/m 6,3 km/h (2 Bft)
26.12.2014 02:58 0,8 C 0,0 C 97 % 1028,7 hPa 0,0 l/m 0 min 0 min 0 W/m 8,4 km/h (2 Bft)
26.12.2014 03:00 0,8 C 0,0 C 97 % 1028,6 hPa 0,0 l/m 0 min 0 min 0 W/m 6,3 km/h (2 Bft)
26.12.2014 03:02 0,8 C 0,0 C 97 % 1028,6 hPa 0,0 l/m 0 min 0 min 0 W/m 4,2 km/h (1 Bft)
26.12.2014 03:04 0,8 C 0,0 C 97 % 1028,6 hPa 0,0 l/m 0 min 0 min 0 W/m 6,3 km/h (2 Bft)
26.12.2014 03:06 0,8 C 0,0 C 97 % 1028,6 hPa 0,0 l/m 0 min 0 min 0 W/m 6,3 km/h (2 Bft)
26.12.2014 03:08 0,8 C 0,0 C 97 % 1028,6 hPa 0,0 l/m 0 min 0 min 0 W/m 6,3 km/h (2 Bft)
26.12.2014 03:10 0,8 C 0,0 C 97 % 1028,6 hPa 0,0 l/m 0 min 0 min 0 W/m 6,3 km/h (2 Bft)
26.12.2014 03:12 0,8 C 0,0 C 97 % 1028,7 hPa 0,0 l/m 0 min 0 min 0 W/m 8,4 km/h (2 Bft)
26.12.2014 03:14 0,8 C 0,6 C 97 % 1028,7 hPa 0,0 l/m 0 min 0 min 0 W/m 6,3 km/h (2 Bft)
26.12.2014 03:16 0,8 C 0,6 C 97 % 1028,6 hPa 0,0 l/m 0 min 0 min 0 W/m 6,3 km/h (2 Bft)
26.12.2014 03:18 0,9 C 0,6 C 97 % 1028,6 hPa 0,0 l/m 0 min 0 min 0 W/m 10,5 km/h (2 Bft)
26.12.2014 03:20 0,9 C 0,6 C 97 % 1028,7 hPa 0,0 l/m 0 min 0 min 0 W/m 6,3 km/h (2 Bft)
26.12.2014 03:22 0,9 C 0,6 C 97 % 1028,6 hPa 0,0 l/m 0 min 0 min 0 W/m 8,4 km/h (2 Bft)
26.12.2014 03:24 0,9 C 0,6 C 97 % 1028,5 hPa 0,0 l/m 0 min 0 min 0 W/m 6,3 km/h (2 Bft)
26.12.2014 03:26 0,9 C 0,6 C 97 % 1028,6 hPa 0,0 l/m 0 min 0 min 0 W/m 6,3 km/h (2 Bft)
26.12.2014 03:28 1,0 C 0,6 C 97 % 1028,6 hPa 0,0 l/m 0 min 0 min 0 W/m 6,3 km/h (2 Bft)
26.12.2014 03:30 1,0 C 0,6 C 97 % 1028,7 hPa 0,0 l/m 0 min 0 min 0 W/m 6,3 km/h (2 Bft)
26.12.2014 03:32 1,0 C 0,6 C 97 % 1028,6 hPa 0,0 l/m 0 min 0 min 0 W/m 6,3 km/h (2 Bft)
26.12.2014 03:34 1,1 C 0,6 C 97 % 1028,6 hPa 0,0 l/m 0 min 0 min 0 W/m 6,3 km/h (2 Bft)
26.12.2014 03:36 1,1 C 0,6 C 97 % 1028,6 hPa 0,0 l/m 0 min 0 min 0 W/m 8,4 km/h (2 Bft)
26.12.2014 03:38 1,1 C 0,6 C 97 % 1028,6 hPa 0,0 l/m 0 min 2 min 0 W/m 10,5 km/h (2 Bft)
26.12.2014 03:40 1,1 C 0,6 C 97 % 1028,6 hPa 0,0 l/m 0 min 2 min 0 W/m 8,4 km/h (2 Bft)
26.12.2014 03:42 1,2 C 0,6 C 97 % 1028,7 hPa 0,0 l/m 0 min 2 min 0 W/m 10,5 km/h (2 Bft)
26.12.2014 03:44 1,2 C 0,6 C 97 % 1028,6 hPa 0,2 l/m 0 min 2 min 0 W/m 8,4 km/h (2 Bft)
26.12.2014 03:46 1,2 C 1,1 C 97 % 1028,6 hPa 0,0 l/m 0 min 2 min 0 W/m 6,3 km/h (2 Bft)
26.12.2014 03:48 1,2 C 1,1 C 97 % 1028,6 hPa 0,0 l/m 0 min 2 min 0 W/m 8,4 km/h (2 Bft)
26.12.2014 03:50 1,3 C 1,1 C 97 % 1028,6 hPa 0,0 l/m 0 min 2 min 0 W/m 10,5 km/h (2 Bft)
26.12.2014 03:52 1,4 C 1,1 C 97 % 1028,6 hPa 0,0 l/m 0 min 2 min 0 W/m 10,5 km/h (2 Bft)
26.12.2014 03:54 1,4 C 1,1 C 97 % 1028,5 hPa 0,0 l/m 0 min 2 min 0 W/m 6,3 km/h (2 Bft)
26.12.2014 03:56 1,4 C 0,6 C 97 % 1028,5 hPa 0,0 l/m 0 min 2 min 0 W/m 6,3 km/h (2 Bft)
26.12.2014 03:58 1,5 C 0,6 C 97 % 1028,5 hPa 0,0 l/m 0 min 2 min 0 W/m 8,4 km/h (2 Bft)
26.12.2014 04:00 1,5 C 0,6 C 97 % 1028,5 hPa 0,0 l/m 0 min 2 min 0 W/m 4,2 km/h (1 Bft)
26.12.2014 04:02 1,5 C 0,6 C 97 % 1028,6 hPa 0,0 l/m 0 min 2 min 0 W/m 8,4 km/h (2 Bft)
26.12.2014 04:04 1,5 C 0,6 C 97 % 1028,6 hPa 0,0 l/m 0 min 2 min 0 W/m 6,3 km/h (2 Bft)
26.12.2014 04:06 1,6 C 0,6 C 97 % 1028,5 hPa 0,0 l/m 0 min 2 min 0 W/m 8,4 km/h (2 Bft)
26.12.2014 04:08 1,6 C 0,6 C 97 % 1028,6 hPa 0,0 l/m 0 min 0 min 0 W/m 12,6 km/h (3 Bft)
26.12.2014 04:10 1,6 C 0,6 C 97 % 1028,5 hPa 0,0 l/m 0 min 0 min 0 W/m 12,6 km/h (3 Bft)
26.12.2014 04:12 1,6 C 0,6 C 97 % 1028,5 hPa 0,0 l/m 0 min 0 min 0 W/m 12,6 km/h (3 Bft)
26.12.2014 04:14 1,6 C 0,6 C 97 % 1028,5 hPa 0,0 l/m 0 min 0 min 0 W/m 12,6 km/h (3 Bft)
26.12.2014 04:16 1,6 C 0,6 C 97 % 1028,5 hPa 0,0 l/m 0 min 0 min 0 W/m 10,5 km/h (2 Bft)
26.12.2014 04:18 1,6 C 0,6 C 97 % 1028,6 hPa 0,0 l/m 0 min 0 min 0 W/m 8,4 km/h (2 Bft)
26.12.2014 04:20 1,6 C 0,6 C 97 % 1028,6 hPa 0,0 l/m 0 min 0 min 0 W/m 10,5 km/h (2 Bft)
26.12.2014 04:22 1,6 C 0,6 C 97 % 1028,6 hPa 0,0 l/m 0 min 0 min 0 W/m 8,4 km/h (2 Bft)
26.12.2014 04:24 1,6 C 0,6 C 97 % 1028,7 hPa 0,0 l/m 0 min 0 min 0 W/m 6,3 km/h (2 Bft)
26.12.2014 04:26 1,6 C 0,6 C 97 % 1028,7 hPa 0,0 l/m 0 min 0 min 0 W/m 6,3 km/h (2 Bft)
26.12.2014 04:28 1,6 C 0,0 C 97 % 1028,7 hPa 0,0 l/m 0 min 0 min 0 W/m 8,4 km/h (2 Bft)
26.12.2014 04:30 1,6 C 0,0 C 97 % 1028,6 hPa 0,0 l/m 0 min 0 min 0 W/m 10,5 km/h (2 Bft)
26.12.2014 04:32 1,6 C 0,0 C 97 % 1028,6 hPa 0,0 l/m 0 min 0 min 0 W/m 6,3 km/h (2 Bft)
26.12.2014 04:34 1,6 C 0,0 C 97 % 1028,6 hPa 0,0 l/m 0 min 0 min 0 W/m 6,3 km/h (2 Bft)
26.12.2014 04:36 1,5 C 0,0 C 97 % 1028,6 hPa 0,0 l/m 0 min 0 min 0 W/m 6,3 km/h (2 Bft)
26.12.2014 04:38 1,5 C 0,0 C 97 % 1028,7 hPa 0,0 l/m 0 min 0 min 0 W/m 4,2 km/h (1 Bft)
26.12.2014 04:40 1,5 C 0,0 C 97 % 1028,7 hPa 0,0 l/m 0 min 0 min 0 W/m 8,4 km/h (2 Bft)
26.12.2014 04:42 1,5 C 0,0 C 97 % 1028,7 hPa 0,0 l/m 0 min 0 min 0 W/m 8,4 km/h (2 Bft)
26.12.2014 04:44 1,4 C 0,0 C 97 % 1028,7 hPa 0,0 l/m 0 min 0 min 0 W/m 8,4 km/h (2 Bft)
26.12.2014 04:46 1,4 C 0,6 C 97 % 1028,7 hPa 0,0 l/m 0 min 0 min 0 W/m 10,5 km/h (2 Bft)
26.12.2014 04:48 1,4 C 0,6 C 97 % 1028,7 hPa 0,0 l/m 0 min 0 min 0 W/m 8,4 km/h (2 Bft)
26.12.2014 04:50 1,4 C 0,6 C 97 % 1028,6 hPa 0,0 l/m 0 min 0 min 0 W/m 8,4 km/h (2 Bft)
26.12.2014 04:52 1,4 C 0,6 C 97 % 1028,8 hPa 0,0 l/m 0 min 0 min 0 W/m 6,3 km/h (2 Bft)
26.12.2014 04:54 1,4 C 0,6 C 97 % 1028,8 hPa 0,0 l/m 0 min 0 min 0 W/m 6,3 km/h (2 Bft)
26.12.2014 04:56 1,4 C 0,6 C 97 % 1028,8 hPa 0,0 l/m 0 min 0 min 0 W/m 6,3 km/h (2 Bft)
26.12.2014 04:58 1,4 C 0,6 C 97 % 1028,8 hPa 0,0 l/m 0 min 0 min 0 W/m 6,3 km/h (2 Bft)
26.12.2014 05:00 1,4 C 0,6 C 97 % 1028,8 hPa 0,0 l/m 0 min 0 min 0 W/m 8,4 km/h (2 Bft)
26.12.2014 05:02 1,4 C 0,6 C 97 % 1028,8 hPa 0,0 l/m 0 min 0 min 0 W/m 6,3 km/h (2 Bft)
26.12.2014 05:04 1,4 C 0,6 C 97 % 1028,7 hPa 0,0 l/m 0 min 0 min 0 W/m 6,3 km/h (2 Bft)
26.12.2014 05:06 1,4 C 0,0 C 97 % 1028,8 hPa 0,0 l/m 0 min 0 min 0 W/m 4,2 km/h (1 Bft)
26.12.2014 05:08 1,3 C 0,0 C 97 % 1028,8 hPa 0,2 l/m 0 min 0 min 0 W/m 4,2 km/h (1 Bft)
26.12.2014 05:10 1,3 C 0,0 C 97 % 1028,8 hPa 0,0 l/m 0 min 0 min 0 W/m 4,2 km/h (1 Bft)
26.12.2014 05:12 1,3 C 0,0 C 97 % 1028,7 hPa 0,0 l/m 0 min 0 min 0 W/m 6,3 km/h (2 Bft)
26.12.2014 05:14 1,3 C 0,0 C 97 % 1028,8 hPa 0,0 l/m 0 min 0 min 0 W/m 6,3 km/h (2 Bft)
26.12.2014 05:16 1,3 C 0,0 C 97 % 1028,8 hPa 0,0 l/m 0 min 0 min 0 W/m 8,4 km/h (2 Bft)
26.12.2014 05:18 1,3 C 0,6 C 97 % 1028,8 hPa 0,0 l/m 0 min 0 min 0 W/m 6,3 km/h (2 Bft)
26.12.2014 05:20 1,3 C 0,6 C 97 % 1028,7 hPa 0,0 l/m 0 min 0 min 0 W/m 6,3 km/h (2 Bft)
26.12.2014 05:22 1,3 C 0,6 C 97 % 1028,6 hPa 0,0 l/m 0 min 0 min 0 W/m 6,3 km/h (2 Bft)
26.12.2014 05:24 1,3 C 0,6 C 97 % 1028,7 hPa 0,0 l/m 0 min 0 min 0 W/m 8,4 km/h (2 Bft)
26.12.2014 05:26 1,3 C 0,6 C 97 % 1028,6 hPa 0,0 l/m 0 min 0 min 0 W/m 10,5 km/h (2 Bft)
26.12.2014 05:28 1,3 C 0,6 C 97 % 1028,7 hPa 0,0 l/m 0 min 0 min 0 W/m 12,6 km/h (3 Bft)
26.12.2014 05:30 1,3 C 0,6 C 97 % 1028,6 hPa 0,0 l/m 0 min 0 min 0 W/m 10,5 km/h (2 Bft)
26.12.2014 05:32 1,3 C 0,6 C 97 % 1028,6 hPa 0,0 l/m 0 min 0 min 0 W/m 8,4 km/h (2 Bft)
26.12.2014 05:34 1,3 C 0,0 C 97 % 1028,5 hPa 0,0 l/m 0 min 0 min 0 W/m 10,5 km/h (2 Bft)
26.12.2014 05:36 1,3 C 0,0 C 97 % 1028,5 hPa 0,0 l/m 0 min 0 min 0 W/m 8,4 km/h (2 Bft)
26.12.2014 05:38 1,3 C 0,0 C 97 % 1028,5 hPa 0,0 l/m 0 min 0 min 0 W/m 8,4 km/h (2 Bft)
26.12.2014 05:40 1,3 C 0,0 C 97 % 1028,6 hPa 0,0 l/m 0 min 0 min 0 W/m 6,3 km/h (2 Bft)
26.12.2014 05:42 1,3 C 0,0 C 97 % 1028,5 hPa 0,0 l/m 0 min 0 min 0 W/m 10,5 km/h (2 Bft)
26.12.2014 05:44 1,3 C 0,0 C 97 % 1028,5 hPa 0,0 l/m 0 min 0 min 0 W/m 8,4 km/h (2 Bft)
26.12.2014 05:46 1,3 C 0,0 C 97 % 1028,6 hPa 0,0 l/m 0 min 0 min 0 W/m 8,4 km/h (2 Bft)
26.12.2014 05:48 1,3 C 0,0 C 97 % 1028,6 hPa 0,0 l/m 0 min 0 min 0 W/m 4,2 km/h (1 Bft)
26.12.2014 05:50 1,3 C 0,0 C 97 % 1028,6 hPa 0,0 l/m 0 min 0 min 0 W/m 8,4 km/h (2 Bft)
26.12.2014 05:52 1,3 C 0,0 C 97 % 1028,7 hPa 0,0 l/m 0 min 0 min 0 W/m 8,4 km/h (2 Bft)
26.12.2014 05:54 1,3 C 0,0 C 97 % 1028,6 hPa 0,0 l/m 0 min 0 min 0 W/m 10,5 km/h (2 Bft)
26.12.2014 05:56 1,3 C 0,0 C 97 % 1028,6 hPa 0,0 l/m 0 min 0 min 0 W/m 10,5 km/h (2 Bft)
26.12.2014 05:58 1,3 C 0,0 C 97 % 1028,6 hPa 0,0 l/m 0 min 0 min 0 W/m 8,4 km/h (2 Bft)
26.12.2014 06:00 1,2 C 0,6 C 97 % 1028,5 hPa 0,0 l/m 0 min 0 min 0 W/m 10,5 km/h (2 Bft)
26.12.2014 06:02 1,2 C 0,6 C 97 % 1028,5 hPa 0,0 l/m 0 min 0 min 0 W/m 8,4 km/h (2 Bft)
26.12.2014 06:05 1,2 C 0,6 C 97 % 1028,5 hPa 0,0 l/m 0 min 0 min 0 W/m 10,5 km/h (2 Bft)
26.12.2014 06:08 1,2 C 0,6 C 97 % 1028,5 hPa 0,0 l/m 0 min 0 min 0 W/m 10,5 km/h (2 Bft)
26.12.2014 06:10 1,2 C 0,6 C 97 % 1028,5 hPa 0,0 l/m 0 min 0 min 0 W/m 8,4 km/h (2 Bft)
26.12.2014 06:12 1,2 C 0,6 C 97 % 1028,5 hPa 0,0 l/m 0 min 0 min 0 W/m 8,4 km/h (2 Bft)
26.12.2014 06:14 1,2 C 0,0 C 97 % 1028,5 hPa 0,0 l/m 0 min 0 min 0 W/m 8,4 km/h (2 Bft)
26.12.2014 06:16 1,2 C 0,0 C 97 % 1028,5 hPa 0,0 l/m 0 min 0 min 0 W/m 10,5 km/h (2 Bft)
26.12.2014 06:18 1,2 C 0,0 C 97 % 1028,5 hPa 0,0 l/m 0 min 0 min 0 W/m 8,4 km/h (2 Bft)
26.12.2014 06:20 1,2 C 0,0 C 97 % 1028,5 hPa 0,0 l/m 0 min 0 min 0 W/m 6,3 km/h (2 Bft)
26.12.2014 06:22 1,2 C 0,0 C 97 % 1028,6 hPa 0,0 l/m 0 min 0 min 0 W/m 4,2 km/h (1 Bft)
26.12.2014 06:24 1,2 C 0,0 C 97 % 1028,5 hPa 0,0 l/m 0 min 0 min 0 W/m 6,3 km/h (2 Bft)
26.12.2014 06:26 1,2 C 0,0 C 97 % 1028,6 hPa 0,0 l/m 0 min 0 min 0 W/m 6,3 km/h (2 Bft)
26.12.2014 06:28 1,2 C 0,0 C 97 % 1028,6 hPa 0,0 l/m 0 min 0 min 0 W/m 6,3 km/h (2 Bft)
26.12.2014 06:30 1,2 C 0,0 C 97 % 1028,6 hPa 0,0 l/m 0 min 0 min 0 W/m 8,4 km/h (2 Bft)
26.12.2014 06:32 1,2 C 0,6 C 97 % 1028,7 hPa 0,0 l/m 0 min 0 min 0 W/m 6,3 km/h (2 Bft)
26.12.2014 06:34 1,2 C 0,6 C 97 % 1028,6 hPa 0,0 l/m 0 min 0 min 0 W/m 6,3 km/h (2 Bft)
26.12.2014 06:36 1,2 C 0,6 C 97 % 1028,6 hPa 0,0 l/m 0 min 0 min 0 W/m 10,5 km/h (2 Bft)
26.12.2014 06:38 1,2 C 0,6 C 97 % 1028,7 hPa 0,0 l/m 0 min 0 min 0 W/m 6,3 km/h (2 Bft)
26.12.2014 06:40 1,2 C 0,6 C 97 % 1028,6 hPa 0,0 l/m 0 min 0 min 0 W/m 8,4 km/h (2 Bft)
26.12.2014 06:42 1,2 C 0,6 C 97 % 1028,7 hPa 0,0 l/m 0 min 0 min 0 W/m 8,4 km/h (2 Bft)
26.12.2014 06:44 1,2 C 0,6 C 97 % 1028,6 hPa 0,0 l/m 0 min 0 min 0 W/m 6,3 km/h (2 Bft)
26.12.2014 06:46 1,2 C 0,6 C 97 % 1028,6 hPa 0,0 l/m 0 min 0 min 0 W/m 8,4 km/h (2 Bft)
26.12.2014 06:48 1,2 C 0,6 C 97 % 1028,7 hPa 0,0 l/m 0 min 0 min 0 W/m 12,6 km/h (3 Bft)
26.12.2014 06:50 1,2 C 0,6 C 97 % 1028,8 hPa 0,0 l/m 0 min 0 min 0 W/m 8,4 km/h (2 Bft)
26.12.2014 06:52 1,2 C 0,6 C 97 % 1028,8 hPa 0,0 l/m 0 min 0 min 0 W/m 8,4 km/h (2 Bft)
26.12.2014 06:54 1,2 C 0,6 C 97 % 1028,8 hPa 0,0 l/m 0 min 0 min 0 W/m 10,5 km/h (2 Bft)
26.12.2014 06:56 1,3 C 0,6 C 97 % 1028,9 hPa 0,0 l/m 0 min 0 min 0 W/m 8,4 km/h (2 Bft)
26.12.2014 06:58 1,3 C 0,6 C 97 % 1028,8 hPa 0,0 l/m 0 min 0 min 0 W/m 6,3 km/h (2 Bft)
26.12.2014 07:00 1,3 C 0,6 C 97 % 1028,9 hPa 0,0 l/m 0 min 0 min 0 W/m 6,3 km/h (2 Bft)
26.12.2014 07:02 1,3 C 0,6 C 97 % 1028,8 hPa 0,0 l/m 0 min 0 min 0 W/m 6,3 km/h (2 Bft)
26.12.2014 07:04 1,3 C 0,6 C 97 % 1029,0 hPa 0,0 l/m 0 min 0 min 0 W/m 8,4 km/h (2 Bft)
26.12.2014 07:06 1,3 C 0,6 C 97 % 1028,9 hPa 0,0 l/m 0 min 0 min 0 W/m 8,4 km/h (2 Bft)
26.12.2014 07:08 1,3 C 0,6 C 97 % 1029,0 hPa 0,0 l/m 0 min 0 min 0 W/m 12,6 km/h (3 Bft)
26.12.2014 07:10 1,4 C 0,6 C 97 % 1029,0 hPa 0,0 l/m 0 min 0 min 0 W/m 8,4 km/h (2 Bft)
26.12.2014 07:12 1,4 C 1,1 C 97 % 1029,0 hPa 0,0 l/m 0 min 0 min 0 W/m 10,5 km/h (2 Bft)
26.12.2014 07:14 1,4 C 1,1 C 97 % 1029,0 hPa 0,0 l/m 0 min 0 min 0 W/m 8,4 km/h (2 Bft)
26.12.2014 07:16 1,4 C 1,1 C 97 % 1029,0 hPa 0,0 l/m 0 min 0 min 0 W/m 8,4 km/h (2 Bft)
26.12.2014 07:18 1,4 C 1,1 C 97 % 1028,9 hPa 0,0 l/m 0 min 0 min 0 W/m 10,5 km/h (2 Bft)
26.12.2014 07:20 1,5 C 0,6 C 97 % 1028,9 hPa 0,0 l/m 0 min 0 min 0 W/m 12,6 km/h (3 Bft)
26.12.2014 07:22 1,5 C 1,1 C 97 % 1028,9 hPa 0,0 l/m 0 min 0 min 0 W/m 12,6 km/h (3 Bft)
26.12.2014 07:24 1,6 C 1,1 C 97 % 1028,9 hPa 0,0 l/m 0 min 0 min 0 W/m 12,6 km/h (3 Bft)
26.12.2014 07:26 1,6 C 1,1 C 97 % 1028,9 hPa 0,0 l/m 0 min 0 min 0 W/m 12,6 km/h (3 Bft)
26.12.2014 07:28 1,6 C 1,1 C 97 % 1028,9 hPa 0,0 l/m 0 min 0 min 0 W/m 16,7 km/h (3 Bft)
26.12.2014 07:30 1,6 C 1,1 C 97 % 1029,0 hPa 0,0 l/m 0 min 0 min 0 W/m 12,6 km/h (3 Bft)
26.12.2014 07:32 1,6 C 1,1 C 97 % 1029,0 hPa 0,0 l/m 0 min 0 min 0 W/m 6,3 km/h (2 Bft)
26.12.2014 07:34 1,6 C 1,1 C 97 % 1029,0 hPa 0,0 l/m 0 min 0 min 0 W/m 8,4 km/h (2 Bft)
26.12.2014 07:36 1,7 C 1,1 C 97 % 1029,1 hPa 0,0 l/m 0 min 0 min 0 W/m 8,4 km/h (2 Bft)
26.12.2014 07:38 1,7 C 1,1 C 97 % 1029,0 hPa 0,0 l/m 0 min 0 min 0 W/m 12,6 km/h (3 Bft)
26.12.2014 07:40 1,7 C 0,6 C 97 % 1029,0 hPa 0,0 l/m 0 min 0 min 0 W/m 10,5 km/h (2 Bft)
26.12.2014 07:42 1,7 C 0,6 C 97 % 1029,0 hPa 0,0 l/m 0 min 0 min 0 W/m 4,2 km/h (1 Bft)
26.12.2014 07:44 1,7 C 1,1 C 97 % 1029,1 hPa 0,0 l/m 0 min 0 min 0 W/m 10,5 km/h (2 Bft)
26.12.2014 07:46 1,7 C 1,1 C 97 % 1029,1 hPa 0,0 l/m 0 min 0 min 0 W/m 10,5 km/h (2 Bft)
26.12.2014 07:48 1,7 C 1,1 C 97 % 1029,0 hPa 0,0 l/m 0 min 0 min 0 W/m 10,5 km/h (2 Bft)
26.12.2014 07:50 1,7 C 0,6 C 98 % 1029,0 hPa 0,0 l/m 0 min 0 min 0 W/m 8,4 km/h (2 Bft)
26.12.2014 07:52 1,7 C 0,6 C 98 % 1029,1 hPa 0,0 l/m 0 min 0 min 0 W/m 8,4 km/h (2 Bft)
26.12.2014 07:54 1,7 C 0,6 C 98 % 1029,0 hPa 0,0 l/m 0 min 0 min 0 W/m 10,5 km/h (2 Bft)
26.12.2014 07:56 1,7 C 0,6 C 98 % 1029,0 hPa 0,0 l/m 0 min 0 min 0 W/m 10,5 km/h (2 Bft)
26.12.2014 07:58 1,7 C 0,6 C 98 % 1029,0 hPa 0,0 l/m 0 min 0 min 0 W/m 8,4 km/h (2 Bft)
26.12.2014 08:00 1,7 C 0,6 C 98 % 1029,0 hPa 0,0 l/m 0 min 0 min 0 W/m 8,4 km/h (2 Bft)
26.12.2014 08:02 1,7 C 0,6 C 98 % 1029,0 hPa 0,0 l/m 0 min 0 min 0 W/m 8,4 km/h (2 Bft)
26.12.2014 08:04 1,7 C 0,6 C 98 % 1029,0 hPa 0,0 l/m 0 min 0 min 0 W/m 6,3 km/h (2 Bft)
26.12.2014 08:06 1,7 C 0,6 C 98 % 1029,0 hPa 0,0 l/m 0 min 0 min 0 W/m 8,4 km/h (2 Bft)
26.12.2014 08:08 1,7 C 0,6 C 97 % 1029,1 hPa 0,0 l/m 0 min 0 min 0 W/m 6,3 km/h (2 Bft)
26.12.2014 08:10 1,7 C 0,6 C 98 % 1029,1 hPa 0,0 l/m 0 min 0 min 0 W/m 6,3 km/h (2 Bft)
26.12.2014 08:12 1,7 C 0,6 C 98 % 1029,1 hPa 0,0 l/m 0 min 0 min 0 W/m 8,4 km/h (2 Bft)
26.12.2014 08:14 1,7 C 0,6 C 98 % 1029,1 hPa 0,0 l/m 0 min 0 min 0 W/m 4,2 km/h (1 Bft)
26.12.2014 08:16 1,7 C 0,6 C 98 % 1029,1 hPa 0,0 l/m 0 min 0 min 0 W/m 6,3 km/h (2 Bft)
26.12.2014 08:18 1,7 C 0,6 C 98 % 1029,2 hPa 0,0 l/m 0 min 0 min 0 W/m 6,3 km/h (2 Bft)
26.12.2014 08:20 1,7 C 0,6 C 98 % 1029,2 hPa 0,0 l/m 0 min 0 min 0 W/m 4,2 km/h (1 Bft)
26.12.2014 08:22 1,7 C 1,1 C 98 % 1029,2 hPa 0,0 l/m 0 min 0 min 0 W/m 8,4 km/h (2 Bft)
26.12.2014 08:24 1,7 C 1,1 C 98 % 1029,3 hPa 0,0 l/m 0 min 0 min 0 W/m 10,5 km/h (2 Bft)
26.12.2014 08:26 1,7 C 1,1 C 98 % 1029,3 hPa 0,0 l/m 0 min 0 min 0 W/m 10,5 km/h (2 Bft)
26.12.2014 08:28 1,7 C 1,1 C 98 % 1029,3 hPa 0,0 l/m 0 min 2 min 0 W/m 4,2 km/h (1 Bft)
26.12.2014 08:30 1,7 C 1,1 C 98 % 1029,3 hPa 0,0 l/m 0 min 2 min 0 W/m 4,2 km/h (1 Bft)
26.12.2014 08:32 1,7 C 1,1 C 98 % 1029,3 hPa 0,0 l/m 0 min 2 min 0 W/m 4,2 km/h (1 Bft)
26.12.2014 08:34 1,7 C 1,1 C 98 % 1029,2 hPa 0,0 l/m 0 min 2 min 0 W/m 2,1 km/h (1 Bft)
26.12.2014 08:36 1,7 C 1,1 C 98 % 1029,3 hPa 0,0 l/m 0 min 2 min 0 W/m 6,3 km/h (2 Bft)
26.12.2014 08:38 1,7 C 0,6 C 98 % 1029,3 hPa 0,0 l/m 0 min 2 min 0 W/m 6,3 km/h (2 Bft)
26.12.2014 08:40 1,7 C 0,6 C 98 % 1029,2 hPa 0,0 l/m 0 min 2 min 1 W/m 6,3 km/h (2 Bft)
26.12.2014 08:42 1,7 C 0,6 C 98 % 1029,3 hPa 0,0 l/m 0 min 2 min 5 W/m 8,4 km/h (2 Bft)
26.12.2014 08:44 1,7 C 1,1 C 98 % 1029,3 hPa 0,0 l/m 0 min 2 min 5 W/m 6,3 km/h (2 Bft)
26.12.2014 08:46 1,7 C 0,6 C 98 % 1029,3 hPa 0,0 l/m 0 min 2 min 5 W/m 6,3 km/h (2 Bft)
26.12.2014 08:48 1,7 C 0,6 C 98 % 1029,3 hPa 0,0 l/m 0 min 2 min 5 W/m 6,3 km/h (2 Bft)
26.12.2014 08:50 1,7 C 0,6 C 98 % 1029,3 hPa 0,0 l/m 0 min 0 min 7 W/m 6,3 km/h (2 Bft)
26.12.2014 08:52 1,7 C 0,6 C 98 % 1029,3 hPa 0,0 l/m 0 min 0 min 7 W/m 4,2 km/h (1 Bft)
26.12.2014 08:54 1,7 C 0,6 C 98 % 1029,2 hPa 0,0 l/m 0 min 0 min 7 W/m 6,3 km/h (2 Bft)
26.12.2014 08:56 1,7 C 0,6 C 98 % 1029,3 hPa 0,0 l/m 0 min 0 min 9 W/m 6,3 km/h (2 Bft)
26.12.2014 08:58 1,7 C 0,6 C 98 % 1029,3 hPa 0,0 l/m 0 min 0 min 10 W/m 12,6 km/h (3 Bft)
26.12.2014 09:00 1,7 C 0,6 C 98 % 1029,3 hPa 0,0 l/m 0 min 0 min 11 W/m 10,5 km/h (2 Bft)
26.12.2014 09:02 1,7 C 0,6 C 98 % 1029,3 hPa 0,0 l/m 0 min 0 min 12 W/m 10,5 km/h (2 Bft)
26.12.2014 09:04 1,7 C 0,6 C 98 % 1029,2 hPa 0,0 l/m 0 min 0 min 15 W/m 6,3 km/h (2 Bft)
26.12.2014 09:06 1,7 C 0,6 C 98 % 1029,2 hPa 0,0 l/m 0 min 0 min 18 W/m 8,4 km/h (2 Bft)
26.12.2014 09:08 1,7 C 0,6 C 98 % 1029,3 hPa 0,0 l/m 0 min 0 min 19 W/m 8,4 km/h (2 Bft)
26.12.2014 09:10 1,7 C 0,6 C 98 % 1029,3 hPa 0,0 l/m 0 min 0 min 20 W/m 6,3 km/h (2 Bft)
26.12.2014 09:12 1,7 C 0,6 C 98 % 1029,3 hPa 0,0 l/m 0 min 0 min 23 W/m 6,3 km/h (2 Bft)
26.12.2014 09:14 1,7 C 1,1 C 98 % 1029,3 hPa 0,0 l/m 0 min 0 min 24 W/m 6,3 km/h (2 Bft)
26.12.2014 09:16 1,7 C 0,6 C 98 % 1029,3 hPa 0,0 l/m 0 min 0 min 23 W/m 10,5 km/h (2 Bft)
26.12.2014 09:18 1,7 C 0,6 C 98 % 1029,3 hPa 0,0 l/m 0 min 0 min 24 W/m 8,4 km/h (2 Bft)
26.12.2014 09:20 1,7 C 0,6 C 98 % 1029,3 hPa 0,0 l/m 0 min 0 min 26 W/m 8,4 km/h (2 Bft)
26.12.2014 09:22 1,7 C 0,6 C 98 % 1029,3 hPa 0,0 l/m 0 min 0 min 27 W/m 8,4 km/h (2 Bft)
26.12.2014 09:24 1,7 C 1,1 C 98 % 1029,3 hPa 0,0 l/m 0 min 0 min 30 W/m 10,5 km/h (2 Bft)
26.12.2014 09:26 1,7 C 0,6 C 98 % 1029,3 hPa 0,0 l/m 0 min 0 min 31 W/m 8,4 km/h (2 Bft)
26.12.2014 09:28 1,7 C 1,1 C 98 % 1029,3 hPa 0,0 l/m 0 min 0 min 32 W/m 10,5 km/h (2 Bft)
26.12.2014 09:30 1,7 C 0,6 C 98 % 1029,3 hPa 0,0 l/m 0 min 0 min 34 W/m 10,5 km/h (2 Bft)
26.12.2014 09:32 1,7 C 1,1 C 98 % 1029,3 hPa 0,0 l/m 0 min 0 min 38 W/m 12,6 km/h (3 Bft)
26.12.2014 09:34 1,7 C 1,1 C 98 % 1029,3 hPa 0,0 l/m 0 min 0 min 42 W/m 14,6 km/h (3 Bft)
26.12.2014 09:36 1,7 C 1,1 C 98 % 1029,3 hPa 0,0 l/m 0 min 0 min 46 W/m 12,6 km/h (3 Bft)
26.12.2014 09:38 1,7 C 1,1 C 98 % 1029,3 hPa 0,0 l/m 0 min 0 min 44 W/m 10,5 km/h (2 Bft)
26.12.2014 09:40 1,7 C 1,1 C 98 % 1029,3 hPa 0,0 l/m 0 min 0 min 51 W/m 8,4 km/h (2 Bft)
26.12.2014 09:42 1,7 C 1,1 C 98 % 1029,3 hPa 0,0 l/m 0 min 0 min 49 W/m 6,3 km/h (2 Bft)
26.12.2014 09:44 1,7 C 0,6 C 98 % 1029,4 hPa 0,0 l/m 0 min 0 min 40 W/m 6,3 km/h (2 Bft)
26.12.2014 09:46 1,7 C 1,1 C 98 % 1029,4 hPa 0,0 l/m 0 min 0 min 48 W/m 10,5 km/h (2 Bft)
26.12.2014 09:48 1,7 C 1,1 C 98 % 1029,4 hPa 0,0 l/m 0 min 0 min 60 W/m 10,5 km/h (2 Bft)
26.12.2014 09:50 1,7 C 1,1 C 98 % 1029,4 hPa 0,0 l/m 0 min 0 min 61 W/m 8,4 km/h (2 Bft)
26.12.2014 09:52 1,7 C 1,1 C 98 % 1029,4 hPa 0,0 l/m 2 min 0 min 67 W/m 10,5 km/h (2 Bft)
26.12.2014 09:54 1,7 C 1,1 C 98 % 1029,4 hPa 0,0 l/m 0 min 0 min 65 W/m 10,5 km/h (2 Bft)
26.12.2014 09:56 1,7 C 1,1 C 98 % 1029,4 hPa 0,0 l/m 0 min 0 min 60 W/m 8,4 km/h (2 Bft)
26.12.2014 09:58 1,8 C 1,1 C 98 % 1029,4 hPa 0,0 l/m 0 min 0 min 58 W/m 6,3 km/h (2 Bft)
26.12.2014 10:00 1,8 C 1,1 C 98 % 1029,4 hPa 0,0 l/m 0 min 0 min 58 W/m 10,5 km/h (2 Bft)
26.12.2014 10:02 1,8 C 1,1 C 98 % 1029,4 hPa 0,0 l/m 0 min 0 min 56 W/m 10,5 km/h (2 Bft)
26.12.2014 10:04 1,8 C 1,1 C 98 % 1029,4 hPa 0,0 l/m 0 min 0 min 54 W/m 8,4 km/h (2 Bft)
26.12.2014 10:06 1,8 C 1,1 C 98 % 1029,4 hPa 0,0 l/m 0 min 0 min 55 W/m 10,5 km/h (2 Bft)
26.12.2014 10:08 1,8 C 1,1 C 98 % 1029,4 hPa 0,0 l/m 0 min 0 min 63 W/m 8,4 km/h (2 Bft)
26.12.2014 10:10 1,9 C 1,1 C 98 % 1029,4 hPa 0,0 l/m 0 min 0 min 73 W/m 6,3 km/h (2 Bft)
26.12.2014 10:12 1,9 C 1,1 C 98 % 1029,4 hPa 0,0 l/m 0 min 0 min 79 W/m 8,4 km/h (2 Bft)
26.12.2014 10:14 1,9 C 1,1 C 98 % 1029,4 hPa 0,0 l/m 0 min 0 min 73 W/m 6,3 km/h (2 Bft)
26.12.2014 10:16 1,9 C 1,1 C 98 % 1029,4 hPa 0,0 l/m 0 min 0 min 66 W/m 8,4 km/h (2 Bft)
26.12.2014 10:18 1,9 C 1,1 C 98 % 1029,4 hPa 0,0 l/m 0 min 0 min 66 W/m 8,4 km/h (2 Bft)
26.12.2014 10:20 1,9 C 1,1 C 98 % 1029,4 hPa 0,0 l/m 0 min 0 min 66 W/m 6,3 km/h (2 Bft)
26.12.2014 10:22 1,9 C 1,1 C 98 % 1029,4 hPa 0,0 l/m 0 min 0 min 70 W/m 6,3 km/h (2 Bft)
26.12.2014 10:24 2,0 C 1,1 C 98 % 1029,4 hPa 0,0 l/m 0 min 0 min 61 W/m 18,8 km/h (3 Bft)
26.12.2014 10:26 2,0 C 1,7 C 98 % 1029,4 hPa 0,0 l/m 2 min 0 min 91 W/m 8,4 km/h (2 Bft)
26.12.2014 10:28 2,0 C 1,7 C 98 % 1029,4 hPa 0,0 l/m 0 min 0 min 70 W/m 10,5 km/h (2 Bft)
26.12.2014 10:30 2,1 C 1,7 C 98 % 1029,4 hPa 0,0 l/m 0 min 0 min 70 W/m 16,7 km/h (3 Bft)
26.12.2014 10:32 2,1 C 1,7 C 98 % 1029,5 hPa 0,0 l/m 0 min 0 min 79 W/m 12,6 km/h (3 Bft)
26.12.2014 10:34 2,1 C 1,7 C 98 % 1029,5 hPa 0,0 l/m 0 min 0 min 81 W/m 16,7 km/h (3 Bft)
26.12.2014 10:36 2,2 C 1,7 C 98 % 1029,5 hPa 0,0 l/m 0 min 0 min 74 W/m 12,6 km/h (3 Bft)
26.12.2014 10:38 2,2 C 1,7 C 98 % 1029,5 hPa 0,0 l/m 0 min 0 min 92 W/m 10,5 km/h (2 Bft)
26.12.2014 10:40 2,2 C 1,7 C 98 % 1029,5 hPa 0,0 l/m 2 min 0 min 100 W/m 10,5 km/h (2 Bft)
26.12.2014 10:42 2,2 C 1,7 C 98 % 1029,5 hPa 0,0 l/m 2 min 0 min 102 W/m 12,6 km/h (3 Bft)
26.12.2014 10:44 2,3 C 1,7 C 98 % 1029,5 hPa 0,0 l/m 0 min 0 min 87 W/m 12,6 km/h (3 Bft)
26.12.2014 10:46 2,3 C 1,7 C 98 % 1029,5 hPa 0,0 l/m 2 min 0 min 112 W/m 8,4 km/h (2 Bft)
26.12.2014 10:48 2,3 C 1,7 C 98 % 1029,6 hPa 0,0 l/m 2 min 0 min 109 W/m 10,5 km/h (2 Bft)
26.12.2014 10:50 2,4 C 1,7 C 98 % 1029,6 hPa 0,0 l/m 0 min 0 min 87 W/m 10,5 km/h (2 Bft)
26.12.2014 10:52 2,4 C 1,7 C 98 % 1029,6 hPa 0,0 l/m 0 min 0 min 60 W/m 10,5 km/h (2 Bft)
26.12.2014 10:54 2,4 C 1,7 C 98 % 1029,6 hPa 0,0 l/m 0 min 0 min 58 W/m 12,6 km/h (3 Bft)
26.12.2014 10:56 2,4 C 1,7 C 98 % 1029,5 hPa 0,0 l/m 0 min 0 min 64 W/m 12,6 km/h (3 Bft)
26.12.2014 10:58 2,4 C 1,7 C 98 % 1029,5 hPa 0,0 l/m 2 min 0 min 111 W/m 10,5 km/h (2 Bft)
26.12.2014 11:00 2,4 C 1,7 C 98 % 1029,4 hPa 0,0 l/m 2 min 0 min 170 W/m 10,5 km/h (2 Bft)
26.12.2014 11:02 2,4 C 1,7 C 98 % 1029,5 hPa 0,0 l/m 2 min 0 min 165 W/m 8,4 km/h (2 Bft)
26.12.2014 11:04 2,4 C 1,7 C 98 % 1029,4 hPa 0,0 l/m 2 min 0 min 194 W/m 10,5 km/h (2 Bft)
26.12.2014 11:06 2,5 C 2,2 C 98 % 1029,4 hPa 0,0 l/m 2 min 0 min 196 W/m 8,4 km/h (2 Bft)
26.12.2014 11:08 2,6 C 2,2 C 98 % 1029,4 hPa 0,0 l/m 2 min 0 min 204 W/m 8,4 km/h (2 Bft)
26.12.2014 11:10 2,6 C 2,2 C 98 % 1029,4 hPa 0,0 l/m 2 min 0 min 118 W/m 12,6 km/h (3 Bft)
26.12.2014 11:12 2,7 C 2,2 C 98 % 1029,4 hPa 0,0 l/m 2 min 0 min 135 W/m 12,6 km/h (3 Bft)
26.12.2014 11:14 2,7 C 2,2 C 98 % 1029,4 hPa 0,0 l/m 2 min 0 min 206 W/m 12,6 km/h (3 Bft)
26.12.2014 11:16 2,8 C 2,2 C 98 % 1029,4 hPa 0,0 l/m 2 min 0 min 197 W/m 8,4 km/h (2 Bft)
26.12.2014 11:18 2,8 C 2,8 C 98 % 1029,4 hPa 0,0 l/m 2 min 0 min 241 W/m 8,4 km/h (2 Bft)
26.12.2014 11:20 2,9 C 2,8 C 98 % 1029,4 hPa 0,0 l/m 2 min 0 min 175 W/m 10,5 km/h (2 Bft)
26.12.2014 11:22 2,9 C 2,8 C 98 % 1029,4 hPa 0,0 l/m 2 min 0 min 159 W/m 10,5 km/h (2 Bft)
26.12.2014 11:24 3,1 C 2,8 C 98 % 1029,4 hPa 0,0 l/m 2 min 0 min 219 W/m 12,6 km/h (3 Bft)
26.12.2014 11:26 3,1 C 2,8 C 98 % 1029,4 hPa 0,0 l/m 2 min 0 min 202 W/m 10,5 km/h (2 Bft)
26.12.2014 11:28 3,2 C 2,8 C 98 % 1029,3 hPa 0,0 l/m 2 min 0 min 216 W/m 12,6 km/h (3 Bft)
26.12.2014 11:30 3,2 C 2,8 C 98 % 1029,4 hPa 0,0 l/m 2 min 0 min 205 W/m 12,6 km/h (3 Bft)
26.12.2014 11:32 3,3 C 2,2 C 98 % 1029,4 hPa 0,0 l/m 2 min 0 min 194 W/m 12,6 km/h (3 Bft)
26.12.2014 11:34 3,3 C 2,2 C 98 % 1029,4 hPa 0,0 l/m 2 min 0 min 217 W/m 12,6 km/h (3 Bft)
26.12.2014 11:36 3,4 C 2,2 C 98 % 1029,4 hPa 0,0 l/m 2 min 0 min 166 W/m 8,4 km/h (2 Bft)
26.12.2014 11:38 3,4 C 2,2 C 98 % 1029,4 hPa 0,0 l/m 2 min 0 min 170 W/m 10,5 km/h (2 Bft)
26.12.2014 11:40 3,4 C 2,2 C 98 % 1029,4 hPa 0,0 l/m 2 min 0 min 166 W/m 14,6 km/h (3 Bft)
26.12.2014 11:42 3,5 C 2,2 C 98 % 1029,3 hPa 0,0 l/m 2 min 0 min 132 W/m 10,5 km/h (2 Bft)
26.12.2014 11:44 3,5 C 2,2 C 98 % 1029,3 hPa 0,0 l/m 0 min 0 min 87 W/m 10,5 km/h (2 Bft)
26.12.2014 11:46 3,4 C 2,2 C 98 % 1029,3 hPa 0,0 l/m 0 min 0 min 79 W/m 10,5 km/h (2 Bft)
26.12.2014 11:48 3,4 C 2,2 C 98 % 1029,2 hPa 0,0 l/m 0 min 0 min 68 W/m 8,4 km/h (2 Bft)
26.12.2014 11:50 3,4 C 2,2 C 98 % 1029,2 hPa 0,0 l/m 0 min 0 min 79 W/m 10,5 km/h (2 Bft)
26.12.2014 11:52 3,4 C 2,2 C 98 % 1029,2 hPa 0,0 l/m 0 min 0 min 126 W/m 10,5 km/h (2 Bft)
26.12.2014 11:54 3,4 C 2,2 C 98 % 1029,2 hPa 0,0 l/m 2 min 0 min 167 W/m 10,5 km/h (2 Bft)
26.12.2014 11:56 3,4 C 2,2 C 98 % 1029,1 hPa 0,0 l/m 2 min 0 min 182 W/m 12,6 km/h (3 Bft)
26.12.2014 11:58 3,4 C 2,2 C 98 % 1029,1 hPa 0,0 l/m 2 min 0 min 180 W/m 12,6 km/h (3 Bft)
26.12.2014 12:00 3,4 C 2,2 C 98 % 1029,1 hPa 0,0 l/m 2 min 0 min 176 W/m 10,5 km/h (2 Bft)
26.12.2014 12:02 3,4 C 2,2 C 98 % 1029,1 hPa 0,0 l/m 2 min 0 min 187 W/m 8,4 km/h (2 Bft)
26.12.2014 12:05 3,5 C 2,2 C 98 % 1029,0 hPa 0,0 l/m 2 min 0 min 195 W/m 14,6 km/h (3 Bft)
26.12.2014 12:08 3,6 C 2,2 C 98 % 1028,9 hPa 0,0 l/m 2 min 0 min 191 W/m 14,6 km/h (3 Bft)
26.12.2014 12:10 3,6 C 2,2 C 98 % 1028,8 hPa 0,0 l/m 2 min 0 min 194 W/m 10,5 km/h (2 Bft)
26.12.2014 12:12 3,6 C 2,2 C 98 % 1028,8 hPa 0,0 l/m 2 min 0 min 191 W/m 10,5 km/h (2 Bft)
26.12.2014 12:14 3,6 C 2,2 C 98 % 1028,8 hPa 0,0 l/m 2 min 0 min 187 W/m 8,4 km/h (2 Bft)
26.12.2014 12:16 3,6 C 2,8 C 98 % 1028,8 hPa 0,0 l/m 2 min 0 min 189 W/m 10,5 km/h (2 Bft)
26.12.2014 12:18 3,7 C 2,2 C 98 % 1028,7 hPa 0,0 l/m 2 min 0 min 190 W/m 12,6 km/h (3 Bft)
26.12.2014 12:20 3,7 C 2,8 C 98 % 1028,8 hPa 0,0 l/m 2 min 0 min 192 W/m 14,6 km/h (3 Bft)
26.12.2014 12:22 3,7 C 2,8 C 98 % 1028,7 hPa 0,0 l/m 2 min 0 min 186 W/m 12,6 km/h (3 Bft)
26.12.2014 12:24 3,8 C 2,8 C 98 % 1028,7 hPa 0,0 l/m 2 min 0 min 179 W/m 10,5 km/h (2 Bft)
26.12.2014 12:26 3,8 C 2,8 C 98 % 1028,6 hPa 0,0 l/m 2 min 0 min 176 W/m 4,2 km/h (1 Bft)
26.12.2014 12:28 3,8 C 2,8 C 98 % 1028,6 hPa 0,0 l/m 2 min 0 min 171 W/m 8,4 km/h (2 Bft)
26.12.2014 12:30 3,8 C 2,8 C 98 % 1028,5 hPa 0,0 l/m 2 min 0 min 174 W/m 8,4 km/h (2 Bft)
26.12.2014 12:32 3,9 C 2,8 C 98 % 1028,5 hPa 0,0 l/m 2 min 0 min 168 W/m 8,4 km/h (2 Bft)
26.12.2014 12:34 3,9 C 2,8 C 98 % 1028,5 hPa 0,0 l/m 2 min 0 min 174 W/m 8,4 km/h (2 Bft)
26.12.2014 12:36 3,9 C 2,8 C 98 % 1028,4 hPa 0,0 l/m 2 min 0 min 171 W/m 8,4 km/h (2 Bft)
26.12.2014 12:38 4,0 C 2,8 C 98 % 1028,4 hPa 0,0 l/m 2 min 0 min 162 W/m 6,3 km/h (2 Bft)
26.12.2014 12:40 4,0 C 2,8 C 98 % 1028,4 hPa 0,0 l/m 2 min 0 min 160 W/m 6,3 km/h (2 Bft)
26.12.2014 12:42 4,1 C 2,8 C 98 % 1028,4 hPa 0,0 l/m 2 min 0 min 156 W/m 6,3 km/h (2 Bft)
26.12.2014 12:44 4,1 C 2,8 C 98 % 1028,3 hPa 0,0 l/m 2 min 0 min 152 W/m 6,3 km/h (2 Bft)
26.12.2014 12:46 4,1 C 2,8 C 98 % 1028,3 hPa 0,0 l/m 2 min 0 min 150 W/m 10,5 km/h (2 Bft)
26.12.2014 12:48 4,1 C 2,8 C 98 % 1028,3 hPa 0,0 l/m 2 min 0 min 155 W/m 8,4 km/h (2 Bft)
26.12.2014 12:50 4,2 C 2,8 C 98 % 1028,3 hPa 0,0 l/m 2 min 0 min 150 W/m 8,4 km/h (2 Bft)
26.12.2014 12:52 4,2 C 2,8 C 98 % 1028,3 hPa 0,0 l/m 2 min 0 min 153 W/m 8,4 km/h (2 Bft)
26.12.2014 12:54 4,2 C 2,8 C 98 % 1028,3 hPa 0,0 l/m 2 min 0 min 152 W/m 10,5 km/h (2 Bft)
26.12.2014 12:56 4,2 C 2,8 C 98 % 1028,3 hPa 0,0 l/m 2 min 0 min 160 W/m 10,5 km/h (2 Bft)
26.12.2014 12:58 4,2 C 2,8 C 98 % 1028,3 hPa 0,0 l/m 2 min 0 min 161 W/m 6,3 km/h (2 Bft)
26.12.2014 13:00 4,2 C 3,3 C 98 % 1028,2 hPa 0,0 l/m 2 min 0 min 162 W/m 10,5 km/h (2 Bft)
26.12.2014 13:02 4,2 C 3,3 C 98 % 1028,2 hPa 0,0 l/m 2 min 0 min 161 W/m 10,5 km/h (2 Bft)
26.12.2014 13:04 4,3 C 3,3 C 98 % 1028,1 hPa 0,0 l/m 2 min 0 min 154 W/m 10,5 km/h (2 Bft)
26.12.2014 13:06 4,3 C 3,3 C 98 % 1028,1 hPa 0,0 l/m 2 min 0 min 152 W/m 8,4 km/h (2 Bft)
26.12.2014 13:08 4,3 C 3,3 C 98 % 1028,1 hPa 0,0 l/m 2 min 0 min 153 W/m 8,4 km/h (2 Bft)
26.12.2014 13:10 4,3 C 3,3 C 98 % 1028,1 hPa 0,0 l/m 2 min 0 min 147 W/m 6,3 km/h (2 Bft)
26.12.2014 13:12 4,3 C 3,3 C 98 % 1028,1 hPa 0,0 l/m 2 min 0 min 140 W/m 8,4 km/h (2 Bft)
26.12.2014 13:14 4,4 C 3,3 C 98 % 1028,1 hPa 0,0 l/m 2 min 0 min 134 W/m 12,6 km/h (3 Bft)
26.12.2014 13:16 4,4 C 3,3 C 98 % 1028,1 hPa 0,0 l/m 2 min 0 min 133 W/m 10,5 km/h (2 Bft)
26.12.2014 13:18 4,4 C 3,3 C 98 % 1028,1 hPa 0,0 l/m 2 min 0 min 132 W/m 10,5 km/h (2 Bft)
26.12.2014 13:20 4,4 C 3,3 C 98 % 1028,1 hPa 0,0 l/m 0 min 0 min 126 W/m 8,4 km/h (2 Bft)
26.12.2014 13:22 4,4 C 3,3 C 98 % 1028,1 hPa 0,0 l/m 0 min 0 min 118 W/m 8,4 km/h (2 Bft)
26.12.2014 13:24 4,4 C 3,3 C 98 % 1028,0 hPa 0,0 l/m 0 min 0 min 115 W/m 10,5 km/h (2 Bft)
26.12.2014 13:26 4,4 C 3,3 C 98 % 1028,0 hPa 0,0 l/m 0 min 0 min 111 W/m 8,4 km/h (2 Bft)
26.12.2014 13:28 4,4 C 3,3 C 98 % 1027,9 hPa 0,0 l/m 0 min 0 min 103 W/m 12,6 km/h (3 Bft)
26.12.2014 13:30 4,4 C 2,8 C 98 % 1028,0 hPa 0,0 l/m 0 min 0 min 106 W/m 10,5 km/h (2 Bft)
26.12.2014 13:32 4,4 C 2,8 C 98 % 1027,8 hPa 0,0 l/m 0 min 0 min 112 W/m 10,5 km/h (2 Bft)
26.12.2014 13:34 4,4 C 3,3 C 98 % 1027,9 hPa 0,0 l/m 0 min 0 min 115 W/m 10,5 km/h (2 Bft)
26.12.2014 13:36 4,4 C 3,3 C 98 % 1027,9 hPa 0,0 l/m 0 min 0 min 112 W/m 8,4 km/h (2 Bft)
26.12.2014 13:38 4,4 C 3,3 C 98 % 1027,8 hPa 0,0 l/m 0 min 0 min 113 W/m 8,4 km/h (2 Bft)
26.12.2014 13:40 4,4 C 3,3 C 98 % 1027,8 hPa 0,0 l/m 0 min 0 min 112 W/m 10,5 km/h (2 Bft)
26.12.2014 13:42 4,4 C 3,3 C 98 % 1027,8 hPa 0,0 l/m 0 min 0 min 112 W/m 8,4 km/h (2 Bft)
26.12.2014 13:44 4,4 C 3,3 C 98 % 1027,8 hPa 0,0 l/m 0 min 0 min 113 W/m 8,4 km/h (2 Bft)
26.12.2014 13:46 4,4 C 3,3 C 98 % 1027,8 hPa 0,0 l/m 0 min 0 min 110 W/m 10,5 km/h (2 Bft)
26.12.2014 13:48 4,4 C 3,3 C 98 % 1027,8 hPa 0,0 l/m 0 min 0 min 111 W/m 10,5 km/h (2 Bft)
26.12.2014 13:50 4,4 C 3,3 C 98 % 1027,8 hPa 0,0 l/m 0 min 0 min 109 W/m 8,4 km/h (2 Bft)
26.12.2014 13:52 4,4 C 3,3 C 98 % 1027,9 hPa 0,0 l/m 0 min 0 min 105 W/m 10,5 km/h (2 Bft)
26.12.2014 13:54 4,4 C 3,3 C 98 % 1027,8 hPa 0,0 l/m 0 min 0 min 108 W/m 8,4 km/h (2 Bft)
26.12.2014 13:56 4,4 C 3,3 C 98 % 1027,8 hPa 0,0 l/m 0 min 0 min 109 W/m 8,4 km/h (2 Bft)
26.12.2014 13:58 4,4 C 3,3 C 98 % 1027,7 hPa 0,0 l/m 0 min 0 min 107 W/m 10,5 km/h (2 Bft)
26.12.2014 14:00 4,4 C 3,3 C 98 % 1027,7 hPa 0,0 l/m 0 min 0 min 105 W/m 12,6 km/h (3 Bft)
26.12.2014 14:02 4,4 C 3,3 C 98 % 1027,8 hPa 0,0 l/m 0 min 0 min 104 W/m 12,6 km/h (3 Bft)
26.12.2014 14:04 4,4 C 3,3 C 98 % 1027,6 hPa 0,0 l/m 0 min 0 min 102 W/m 12,6 km/h (3 Bft)
26.12.2014 14:06 4,4 C 3,3 C 98 % 1027,7 hPa 0,0 l/m 0 min 0 min 98 W/m 8,4 km/h (2 Bft)
26.12.2014 14:08 4,4 C 3,3 C 98 % 1027,6 hPa 0,0 l/m 0 min 0 min 98 W/m 10,5 km/h (2 Bft)
26.12.2014 14:10 4,4 C 3,3 C 98 % 1027,6 hPa 0,0 l/m 0 min 0 min 98 W/m 10,5 km/h (2 Bft)
26.12.2014 14:12 4,4 C 3,3 C 98 % 1027,6 hPa 0,0 l/m 0 min 0 min 95 W/m 8,4 km/h (2 Bft)
26.12.2014 14:14 4,4 C 3,3 C 98 % 1027,6 hPa 0,0 l/m 0 min 0 min 93 W/m 8,4 km/h (2 Bft)
26.12.2014 14:16 4,4 C 3,3 C 98 % 1027,6 hPa 0,0 l/m 0 min 0 min 90 W/m 10,5 km/h (2 Bft)
26.12.2014 14:18 4,4 C 3,3 C 98 % 1027,5 hPa 0,0 l/m 0 min 0 min 91 W/m 10,5 km/h (2 Bft)
26.12.2014 14:20 4,4 C 3,3 C 98 % 1027,5 hPa 0,0 l/m 0 min 0 min 84 W/m 8,4 km/h (2 Bft)
26.12.2014 14:22 4,4 C 3,3 C 98 % 1027,5 hPa 0,0 l/m 0 min 0 min 86 W/m 10,5 km/h (2 Bft)
26.12.2014 14:24 4,4 C 3,3 C 98 % 1027,5 hPa 0,0 l/m 0 min 0 min 84 W/m 10,5 km/h (2 Bft)
26.12.2014 14:26 4,4 C 3,3 C 98 % 1027,5 hPa 0,0 l/m 0 min 0 min 86 W/m 8,4 km/h (2 Bft)
26.12.2014 14:28 4,4 C 3,3 C 97 % 1027,5 hPa 0,0 l/m 0 min 0 min 76 W/m 8,4 km/h (2 Bft)
26.12.2014 14:30 4,4 C 3,3 C 97 % 1027,4 hPa 0,0 l/m 0 min 0 min 75 W/m 4,2 km/h (1 Bft)
26.12.2014 14:32 4,4 C 3,3 C 97 % 1027,4 hPa 0,0 l/m 0 min 0 min 76 W/m 8,4 km/h (2 Bft)
26.12.2014 14:34 4,4 C 3,3 C 97 % 1027,4 hPa 0,0 l/m 0 min 0 min 75 W/m 10,5 km/h (2 Bft)
26.12.2014 14:36 4,4 C 3,3 C 97 % 1027,4 hPa 0,0 l/m 0 min 0 min 70 W/m 8,4 km/h (2 Bft)
26.12.2014 14:38 4,4 C 3,3 C 97 % 1027,4 hPa 0,0 l/m 0 min 0 min 65 W/m 8,4 km/h (2 Bft)
26.12.2014 14:40 4,4 C 3,3 C 97 % 1027,4 hPa 0,0 l/m 0 min 0 min 68 W/m 8,4 km/h (2 Bft)
26.12.2014 14:42 4,4 C 3,3 C 97 % 1027,4 hPa 0,0 l/m 0 min 0 min 64 W/m 8,4 km/h (2 Bft)
26.12.2014 14:44 4,4 C 3,3 C 97 % 1027,4 hPa 0,0 l/m 0 min 0 min 68 W/m 12,6 km/h (3 Bft)
26.12.2014 14:46 4,4 C 3,3 C 97 % 1027,4 hPa 0,0 l/m 0 min 0 min 65 W/m 10,5 km/h (2 Bft)
26.12.2014 14:48 4,4 C 3,3 C 97 % 1027,4 hPa 0,0 l/m 0 min 0 min 67 W/m 8,4 km/h (2 Bft)
26.12.2014 14:50 4,4 C 3,3 C 97 % 1027,3 hPa 0,0 l/m 0 min 0 min 64 W/m 10,5 km/h (2 Bft)
26.12.2014 14:52 4,3 C 3,3 C 97 % 1027,3 hPa 0,0 l/m 0 min 0 min 62 W/m 10,5 km/h (2 Bft)
26.12.2014 14:54 4,3 C 3,3 C 97 % 1027,3 hPa 0,0 l/m 0 min 0 min 64 W/m 8,4 km/h (2 Bft)
26.12.2014 14:56 4,3 C 3,3 C 97 % 1027,3 hPa 0,0 l/m 0 min 0 min 63 W/m 8,4 km/h (2 Bft)
26.12.2014 14:58 4,3 C 3,3 C 97 % 1027,3 hPa 0,0 l/m 0 min 0 min 61 W/m 6,3 km/h (2 Bft)
26.12.2014 15:00 4,3 C 3,3 C 97 % 1027,3 hPa 0,0 l/m 0 min 0 min 57 W/m 8,4 km/h (2 Bft)
26.12.2014 15:02 4,3 C 3,3 C 97 % 1027,3 hPa 0,0 l/m 0 min 0 min 56 W/m 10,5 km/h (2 Bft)
26.12.2014 15:04 4,3 C 3,3 C 97 % 1027,3 hPa 0,0 l/m 0 min 0 min 57 W/m 4,2 km/h (1 Bft)
26.12.2014 15:06 4,3 C 3,3 C 97 % 1027,3 hPa 0,0 l/m 0 min 0 min 53 W/m 8,4 km/h (2 Bft)
26.12.2014 15:08 4,3 C 3,3 C 97 % 1027,2 hPa 0,0 l/m 0 min 0 min 54 W/m 6,3 km/h (2 Bft)
26.12.2014 15:10 4,3 C 2,8 C 97 % 1027,1 hPa 0,0 l/m 0 min 0 min 55 W/m 10,5 km/h (2 Bft)
26.12.2014 15:12 4,3 C 2,8 C 96 % 1027,2 hPa 0,0 l/m 0 min 0 min 54 W/m 8,4 km/h (2 Bft)
26.12.2014 15:14 4,3 C 2,8 C 96 % 1027,1 hPa 0,0 l/m 0 min 0 min 53 W/m 8,4 km/h (2 Bft)
26.12.2014 15:16 4,3 C 2,8 C 96 % 1027,1 hPa 0,0 l/m 0 min 0 min 51 W/m 8,4 km/h (2 Bft)
26.12.2014 15:18 4,3 C 2,8 C 96 % 1027,1 hPa 0,0 l/m 0 min 0 min 49 W/m 4,2 km/h (1 Bft)
26.12.2014 15:20 4,3 C 2,8 C 96 % 1027,0 hPa 0,0 l/m 0 min 0 min 48 W/m 10,5 km/h (2 Bft)
26.12.2014 15:22 4,3 C 2,8 C 96 % 1027,1 hPa 0,0 l/m 0 min 0 min 47 W/m 6,3 km/h (2 Bft)
26.12.2014 15:24 4,2 C 2,8 C 96 % 1027,1 hPa 0,0 l/m 0 min 0 min 46 W/m 6,3 km/h (2 Bft)
26.12.2014 15:26 4,2 C 2,8 C 96 % 1027,1 hPa 0,0 l/m 0 min 0 min 44 W/m 8,4 km/h (2 Bft)
26.12.2014 15:28 4,2 C 2,8 C 96 % 1027,0 hPa 0,0 l/m 0 min 0 min 42 W/m 6,3 km/h (2 Bft)
26.12.2014 15:30 4,2 C 2,8 C 96 % 1027,0 hPa 0,0 l/m 0 min 0 min 40 W/m 10,5 km/h (2 Bft)
26.12.2014 15:32 4,2 C 2,8 C 96 % 1027,0 hPa 0,0 l/m 0 min 0 min 41 W/m 8,4 km/h (2 Bft)
26.12.2014 15:34 4,2 C 2,8 C 96 % 1026,9 hPa 0,0 l/m 0 min 0 min 40 W/m 4,2 km/h (1 Bft)
26.12.2014 15:36 4,2 C 2,8 C 96 % 1026,9 hPa 0,0 l/m 0 min 0 min 39 W/m 6,3 km/h (2 Bft)
26.12.2014 15:38 4,2 C 2,8 C 96 % 1026,8 hPa 0,0 l/m 0 min 0 min 36 W/m 2,1 km/h (1 Bft)
26.12.2014 15:40 4,2 C 2,8 C 96 % 1026,9 hPa 0,0 l/m 0 min 0 min 34 W/m 4,2 km/h (1 Bft)
26.12.2014 15:42 4,2 C 2,8 C 96 % 1026,9 hPa 0,0 l/m 0 min 0 min 30 W/m 6,3 km/h (2 Bft)
26.12.2014 15:44 4,2 C 2,8 C 96 % 1026,8 hPa 0,0 l/m 0 min 0 min 25 W/m 8,4 km/h (2 Bft)
26.12.2014 15:46 4,2 C 2,8 C 96 % 1026,8 hPa 0,0 l/m 0 min 0 min 21 W/m 8,4 km/h (2 Bft)
26.12.2014 15:48 4,1 C 2,8 C 96 % 1026,8 hPa 0,0 l/m 0 min 0 min 22 W/m 6,3 km/h (2 Bft)
26.12.2014 15:50 4,1 C 2,8 C 96 % 1026,8 hPa 0,0 l/m 0 min 0 min 23 W/m 8,4 km/h (2 Bft)
26.12.2014 15:52 4,1 C 2,8 C 96 % 1026,7 hPa 0,0 l/m 0 min 0 min 23 W/m 6,3 km/h (2 Bft)
26.12.2014 15:54 4,1 C 2,8 C 96 % 1026,6 hPa 0,0 l/m 0 min 0 min 23 W/m 8,4 km/h (2 Bft)
26.12.2014 15:56 4,1 C 2,8 C 96 % 1026,7 hPa 0,0 l/m 0 min 0 min 22 W/m 6,3 km/h (2 Bft)
26.12.2014 15:58 4,1 C 2,8 C 96 % 1026,6 hPa 0,0 l/m 0 min 0 min 21 W/m 6,3 km/h (2 Bft)
26.12.2014 16:00 4,1 C 2,8 C 96 % 1026,6 hPa 0,0 l/m 0 min 0 min 19 W/m 6,3 km/h (2 Bft)
26.12.2014 16:02 4,1 C 2,2 C 96 % 1026,5 hPa 0,0 l/m 0 min 0 min 18 W/m 4,2 km/h (1 Bft)
26.12.2014 16:04 4,1 C 2,2 C 96 % 1026,5 hPa 0,0 l/m 0 min 0 min 17 W/m 4,2 km/h (1 Bft)
26.12.2014 16:06 4,1 C 2,2 C 96 % 1026,5 hPa 0,0 l/m 0 min 0 min 14 W/m 6,3 km/h (2 Bft)
26.12.2014 16:08 4,0 C 2,2 C 95 % 1026,5 hPa 0,0 l/m 0 min 0 min 12 W/m 6,3 km/h (2 Bft)
26.12.2014 16:10 4,0 C 2,2 C 95 % 1026,5 hPa 0,0 l/m 0 min 0 min 12 W/m 6,3 km/h (2 Bft)
26.12.2014 16:12 4,0 C 2,2 C 96 % 1026,4 hPa 0,0 l/m 0 min 0 min 11 W/m 8,4 km/h (2 Bft)
26.12.2014 16:14 3,9 C 2,2 C 95 % 1026,4 hPa 0,0 l/m 0 min 0 min 10 W/m 8,4 km/h (2 Bft)
26.12.2014 16:16 3,9 C 2,2 C 95 % 1026,4 hPa 0,0 l/m 0 min 0 min 9 W/m 8,4 km/h (2 Bft)
26.12.2014 16:18 3,9 C 2,2 C 95 % 1026,5 hPa 0,0 l/m 0 min 0 min 7 W/m 8,4 km/h (2 Bft)
26.12.2014 16:20 3,9 C 2,2 C 95 % 1026,4 hPa 0,0 l/m 0 min 0 min 6 W/m 6,3 km/h (2 Bft)
26.12.2014 16:22 3,9 C 2,2 C 95 % 1026,4 hPa 0,0 l/m 0 min 0 min 5 W/m 6,3 km/h (2 Bft)
26.12.2014 16:24 3,9 C 2,2 C 95 % 1026,4 hPa 0,0 l/m 0 min 0 min 5 W/m 8,4 km/h (2 Bft)
26.12.2014 16:26 3,9 C 2,2 C 95 % 1026,4 hPa 0,0 l/m 0 min 0 min 3 W/m 6,3 km/h (2 Bft)
26.12.2014 16:28 3,9 C 2,8 C 95 % 1026,4 hPa 0,0 l/m 0 min 0 min 0 W/m 8,4 km/h (2 Bft)
26.12.2014 16:30 3,9 C 2,8 C 95 % 1026,3 hPa 0,0 l/m 0 min 0 min 0 W/m 14,6 km/h (3 Bft)
26.12.2014 16:32 3,9 C 2,8 C 95 % 1026,3 hPa 0,0 l/m 0 min 0 min 0 W/m 6,3 km/h (2 Bft)
26.12.2014 16:34 3,9 C 2,8 C 95 % 1026,3 hPa 0,0 l/m 0 min 0 min 0 W/m 10,5 km/h (2 Bft)
26.12.2014 16:36 3,9 C 2,8 C 95 % 1026,3 hPa 0,0 l/m 0 min 0 min 0 W/m 8,4 km/h (2 Bft)
26.12.2014 16:38 3,9 C 2,8 C 95 % 1026,3 hPa 0,0 l/m 0 min 0 min 0 W/m 6,3 km/h (2 Bft)
26.12.2014 16:40 3,8 C 2,8 C 95 % 1026,3 hPa 0,0 l/m 0 min 0 min 0 W/m 6,3 km/h (2 Bft)
26.12.2014 16:42 3,8 C 2,2 C 95 % 1026,4 hPa 0,0 l/m 0 min 0 min 0 W/m 8,4 km/h (2 Bft)
26.12.2014 16:44 3,8 C 2,2 C 95 % 1026,4 hPa 0,0 l/m 0 min 0 min 0 W/m 6,3 km/h (2 Bft)
26.12.2014 16:46 3,8 C 2,2 C 95 % 1026,3 hPa 0,0 l/m 0 min 0 min 0 W/m 6,3 km/h (2 Bft)
26.12.2014 16:48 3,8 C 2,2 C 95 % 1026,3 hPa 0,0 l/m 0 min 0 min 0 W/m 8,4 km/h (2 Bft)
26.12.2014 16:50 3,8 C 2,2 C 95 % 1026,3 hPa 0,0 l/m 0 min 0 min 0 W/m 6,3 km/h (2 Bft)
26.12.2014 16:52 3,8 C 2,2 C 95 % 1026,3 hPa 0,0 l/m 0 min 0 min 0 W/m 6,3 km/h (2 Bft)
26.12.2014 16:54 3,8 C 2,2 C 95 % 1026,3 hPa 0,0 l/m 0 min 0 min 0 W/m 4,2 km/h (1 Bft)
26.12.2014 16:56 3,8 C 2,2 C 95 % 1026,2 hPa 0,0 l/m 0 min 0 min 0 W/m 8,4 km/h (2 Bft)
26.12.2014 16:58 3,7 C 2,2 C 95 % 1026,2 hPa 0,0 l/m 0 min 0 min 0 W/m 8,4 km/h (2 Bft)
26.12.2014 17:00 3,7 C 1,7 C 95 % 1026,2 hPa 0,0 l/m 0 min 0 min 0 W/m 4,2 km/h (1 Bft)
26.12.2014 17:02 3,7 C 1,7 C 95 % 1026,1 hPa 0,0 l/m 0 min 0 min 0 W/m 4,2 km/h (1 Bft)
26.12.2014 17:04 3,7 C 1,7 C 95 % 1026,1 hPa 0,0 l/m 0 min 0 min 0 W/m 8,4 km/h (2 Bft)
26.12.2014 17:06 3,7 C 1,7 C 95 % 1026,0 hPa 0,0 l/m 0 min 0 min 0 W/m 8,4 km/h (2 Bft)
26.12.2014 17:08 3,7 C 1,7 C 95 % 1026,1 hPa 0,0 l/m 0 min 0 min 0 W/m 8,4 km/h (2 Bft)
26.12.2014 17:10 3,7 C 2,2 C 95 % 1026,1 hPa 0,0 l/m 0 min 0 min 0 W/m 10,5 km/h (2 Bft)
26.12.2014 17:12 3,6 C 2,2 C 95 % 1026,1 hPa 0,0 l/m 0 min 0 min 0 W/m 10,5 km/h (2 Bft)
26.12.2014 17:14 3,6 C 2,2 C 95 % 1026,0 hPa 0,0 l/m 0 min 0 min 0 W/m 8,4 km/h (2 Bft)
26.12.2014 17:16 3,6 C 2,2 C 95 % 1026,0 hPa 0,0 l/m 0 min 0 min 0 W/m 8,4 km/h (2 Bft)
26.12.2014 17:18 3,6 C 2,2 C 95 % 1025,9 hPa 0,0 l/m 0 min 0 min 0 W/m 8,4 km/h (2 Bft)
26.12.2014 17:20 3,6 C 2,2 C 95 % 1025,9 hPa 0,0 l/m 0 min 0 min 0 W/m 8,4 km/h (2 Bft)
26.12.2014 17:22 3,6 C 2,2 C 95 % 1025,9 hPa 0,0 l/m 0 min 0 min 0 W/m 8,4 km/h (2 Bft)
26.12.2014 17:24 3,6 C 2,2 C 95 % 1025,9 hPa 0,0 l/m 0 min 0 min 0 W/m 10,5 km/h (2 Bft)
26.12.2014 17:26 3,6 C 2,2 C 95 % 1025,9 hPa 0,0 l/m 0 min 0 min 0 W/m 8,4 km/h (2 Bft)
26.12.2014 17:28 3,5 C 2,2 C 95 % 1025,9 hPa 0,0 l/m 0 min 2 min 0 W/m 10,5 km/h (2 Bft)
26.12.2014 17:30 3,5 C 2,2 C 95 % 1025,8 hPa 0,0 l/m 0 min 2 min 0 W/m 6,3 km/h (2 Bft)
26.12.2014 17:32 3,5 C 2,2 C 95 % 1025,8 hPa 0,0 l/m 0 min 2 min 0 W/m 10,5 km/h (2 Bft)
26.12.2014 17:34 3,5 C 2,2 C 95 % 1025,8 hPa 0,0 l/m 0 min 2 min 0 W/m 6,3 km/h (2 Bft)
26.12.2014 17:36 3,5 C 1,7 C 95 % 1025,8 hPa 0,0 l/m 0 min 2 min 0 W/m 6,3 km/h (2 Bft)
26.12.2014 17:38 3,4 C 1,7 C 95 % 1025,8 hPa 0,0 l/m 0 min 0 min 0 W/m 4,2 km/h (1 Bft)
26.12.2014 17:40 3,4 C 1,7 C 95 % 1025,8 hPa 0,0 l/m 0 min 0 min 0 W/m 6,3 km/h (2 Bft)
26.12.2014 17:42 3,4 C 1,7 C 95 % 1025,7 hPa 0,0 l/m 0 min 0 min 0 W/m 4,2 km/h (1 Bft)
26.12.2014 17:44 3,4 C 1,7 C 95 % 1025,7 hPa 0,0 l/m 0 min 0 min 0 W/m 6,3 km/h (2 Bft)
26.12.2014 17:46 3,4 C 1,7 C 95 % 1025,6 hPa 0,0 l/m 0 min 0 min 0 W/m 6,3 km/h (2 Bft)
26.12.2014 17:48 3,4 C 1,7 C 95 % 1025,6 hPa 0,0 l/m 0 min 0 min 0 W/m 4,2 km/h (1 Bft)
26.12.2014 17:50 3,4 C 1,1 C 95 % 1025,6 hPa 0,0 l/m 0 min 0 min 0 W/m 6,3 km/h (2 Bft)
26.12.2014 17:52 3,4 C 1,1 C 95 % 1025,6 hPa 0,0 l/m 0 min 0 min 0 W/m 6,3 km/h (2 Bft)
26.12.2014 17:54 3,3 C 1,1 C 95 % 1025,5 hPa 0,0 l/m 0 min 0 min 0 W/m 10,5 km/h (2 Bft)
26.12.2014 17:56 3,3 C 1,1 C 95 % 1025,5 hPa 0,0 l/m 0 min 0 min 0 W/m 8,4 km/h (2 Bft)
26.12.2014 17:58 3,3 C 1,1 C 95 % 1025,5 hPa 0,0 l/m 0 min 0 min 0 W/m 8,4 km/h (2 Bft)
26.12.2014 18:00 3,3 C 1,1 C 95 % 1025,4 hPa 0,0 l/m 0 min 0 min 0 W/m 8,4 km/h (2 Bft)
26.12.2014 18:02 3,2 C 1,1 C 95 % 1025,4 hPa 0,0 l/m 0 min 0 min 0 W/m 6,3 km/h (2 Bft)
26.12.2014 18:05 3,2 C 1,1 C 95 % 1025,3 hPa 0,0 l/m 0 min 0 min 0 W/m 6,3 km/h (2 Bft)
26.12.2014 18:08 3,2 C 1,1 C 95 % 1025,3 hPa 0,0 l/m 0 min 0 min 0 W/m 10,5 km/h (2 Bft)
26.12.2014 18:10 3,2 C 1,1 C 95 % 1025,2 hPa 0,0 l/m 0 min 0 min 0 W/m 8,4 km/h (2 Bft)
26.12.2014 18:12 3,2 C 1,1 C 95 % 1025,2 hPa 0,0 l/m 0 min 0 min 0 W/m 6,3 km/h (2 Bft)
26.12.2014 18:14 3,1 C 1,1 C 95 % 1025,2 hPa 0,0 l/m 0 min 0 min 0 W/m 6,3 km/h (2 Bft)
26.12.2014 18:16 3,1 C 1,1 C 95 % 1025,1 hPa 0,0 l/m 0 min 0 min 0 W/m 6,3 km/h (2 Bft)
26.12.2014 18:18 3,1 C 1,1 C 95 % 1025,1 hPa 0,0 l/m 0 min 0 min 0 W/m 12,6 km/h (3 Bft)
26.12.2014 18:20 3,1 C 1,1 C 95 % 1025,1 hPa 0,0 l/m 0 min 0 min 0 W/m 10,5 km/h (2 Bft)
26.12.2014 18:22 3,0 C 1,1 C 95 % 1025,1 hPa 0,0 l/m 0 min 0 min 0 W/m 8,4 km/h (2 Bft)
26.12.2014 18:24 3,0 C 1,1 C 95 % 1025,0 hPa 0,0 l/m 0 min 0 min 0 W/m 6,3 km/h (2 Bft)
26.12.2014 18:26 3,0 C 1,1 C 95 % 1025,0 hPa 0,0 l/m 0 min 0 min 0 W/m 6,3 km/h (2 Bft)
26.12.2014 18:28 3,0 C 1,1 C 95 % 1025,0 hPa 0,0 l/m 0 min 0 min 0 W/m 6,3 km/h (2 Bft)
26.12.2014 18:30 2,9 C 1,1 C 95 % 1025,0 hPa 0,0 l/m 0 min 0 min 0 W/m 6,3 km/h (2 Bft)
26.12.2014 18:32 2,9 C 1,1 C 95 % 1024,9 hPa 0,0 l/m 0 min 0 min 0 W/m 10,5 km/h (2 Bft)
26.12.2014 18:34 2,9 C 1,1 C 95 % 1024,8 hPa 0,0 l/m 0 min 0 min 0 W/m 10,5 km/h (2 Bft)
26.12.2014 18:36 2,9 C 1,1 C 95 % 1024,9 hPa 0,0 l/m 0 min 0 min 0 W/m 6,3 km/h (2 Bft)
26.12.2014 18:38 2,9 C 1,1 C 95 % 1024,9 hPa 0,0 l/m 0 min 0 min 0 W/m 6,3 km/h (2 Bft)
26.12.2014 18:40 2,9 C 1,1 C 95 % 1024,8 hPa 0,0 l/m 0 min 0 min 0 W/m 6,3 km/h (2 Bft)
26.12.2014 18:42 2,9 C 1,7 C 95 % 1024,8 hPa 0,0 l/m 0 min 0 min 0 W/m 8,4 km/h (2 Bft)
26.12.2014 18:44 2,9 C 1,7 C 95 % 1024,8 hPa 0,0 l/m 0 min 0 min 0 W/m 6,3 km/h (2 Bft)
26.12.2014 18:46 2,9 C 1,7 C 95 % 1024,6 hPa 0,0 l/m 0 min 0 min 0 W/m 6,3 km/h (2 Bft)
26.12.2014 18:48 2,9 C 1,7 C 95 % 1024,6 hPa 0,0 l/m 0 min 0 min 0 W/m 6,3 km/h (2 Bft)
26.12.2014 18:50 2,9 C 1,7 C 95 % 1024,6 hPa 0,0 l/m 0 min 0 min 0 W/m 10,5 km/h (2 Bft)
26.12.2014 18:52 2,9 C 1,7 C 95 % 1024,6 hPa 0,0 l/m 0 min 0 min 0 W/m 10,5 km/h (2 Bft)
26.12.2014 18:54 2,9 C 1,7 C 95 % 1024,6 hPa 0,0 l/m 0 min 0 min 0 W/m 6,3 km/h (2 Bft)
26.12.2014 18:56 2,9 C 1,7 C 95 % 1024,6 hPa 0,0 l/m 0 min 0 min 0 W/m 8,4 km/h (2 Bft)
26.12.2014 18:58 2,9 C 1,7 C 95 % 1024,5 hPa 0,0 l/m 0 min 0 min 0 W/m 8,4 km/h (2 Bft)
26.12.2014 19:00 2,9 C 1,7 C 95 % 1024,5 hPa 0,0 l/m 0 min 0 min 0 W/m 6,3 km/h (2 Bft)
26.12.2014 19:02 2,9 C 1,7 C 95 % 1024,5 hPa 0,0 l/m 0 min 0 min 0 W/m 6,3 km/h (2 Bft)
26.12.2014 19:04 2,9 C 1,7 C 95 % 1024,4 hPa 0,0 l/m 0 min 0 min 0 W/m 6,3 km/h (2 Bft)
26.12.2014 19:06 2,9 C 1,7 C 95 % 1024,4 hPa 0,0 l/m 0 min 0 min 0 W/m 4,2 km/h (1 Bft)
26.12.2014 19:08 2,9 C 1,7 C 95 % 1024,3 hPa 0,0 l/m 0 min 0 min 0 W/m 4,2 km/h (1 Bft)
26.12.2014 19:10 2,9 C 1,7 C 95 % 1024,3 hPa 0,0 l/m 0 min 0 min 0 W/m 8,4 km/h (2 Bft)
26.12.2014 19:12 2,9 C 1,7 C 96 % 1024,3 hPa 0,0 l/m 0 min 0 min 0 W/m 8,4 km/h (2 Bft)
26.12.2014 19:14 2,9 C 1,7 C 96 % 1024,3 hPa 0,0 l/m 0 min 0 min 0 W/m 8,4 km/h (2 Bft)
26.12.2014 19:16 2,9 C 1,7 C 96 % 1024,3 hPa 0,0 l/m 0 min 0 min 0 W/m 6,3 km/h (2 Bft)
26.12.2014 19:18 2,9 C 1,7 C 96 % 1024,2 hPa 0,0 l/m 0 min 0 min 0 W/m 8,4 km/h (2 Bft)
26.12.2014 19:20 2,9 C 1,7 C 96 % 1024,3 hPa 0,0 l/m 0 min 0 min 0 W/m 6,3 km/h (2 Bft)
26.12.2014 19:22 2,9 C 1,7 C 96 % 1024,2 hPa 0,0 l/m 0 min 0 min 0 W/m 6,3 km/h (2 Bft)
26.12.2014 19:24 2,9 C 1,7 C 96 % 1024,2 hPa 0,0 l/m 0 min 0 min 0 W/m 6,3 km/h (2 Bft)
26.12.2014 19:26 2,9 C 1,7 C 96 % 1024,1 hPa 0,0 l/m 0 min 0 min 0 W/m 4,2 km/h (1 Bft)
26.12.2014 19:28 2,9 C 1,7 C 96 % 1024,1 hPa 0,0 l/m 0 min 0 min 0 W/m 8,4 km/h (2 Bft)
26.12.2014 19:30 2,9 C 1,7 C 96 % 1024,1 hPa 0,0 l/m 0 min 0 min 0 W/m 8,4 km/h (2 Bft)
26.12.2014 19:32 2,9 C 1,7 C 96 % 1024,1 hPa 0,0 l/m 0 min 0 min 0 W/m 8,4 km/h (2 Bft)
26.12.2014 19:34 2,9 C 1,7 C 96 % 1023,9 hPa 0,0 l/m 0 min 0 min 0 W/m 6,3 km/h (2 Bft)
26.12.2014 19:36 2,9 C 1,7 C 96 % 1023,9 hPa 0,0 l/m 0 min 0 min 0 W/m 8,4 km/h (2 Bft)
26.12.2014 19:38 2,9 C 1,7 C 96 % 1023,9 hPa 0,0 l/m 0 min 0 min 0 W/m 8,4 km/h (2 Bft)
26.12.2014 19:40 2,9 C 1,1 C 96 % 1023,9 hPa 0,0 l/m 0 min 0 min 0 W/m 10,5 km/h (2 Bft)
26.12.2014 19:42 2,8 C 1,1 C 96 % 1023,9 hPa 0,0 l/m 0 min 0 min 0 W/m 10,5 km/h (2 Bft)
26.12.2014 19:44 2,8 C 1,1 C 96 % 1023,8 hPa 0,0 l/m 0 min 0 min 0 W/m 4,2 km/h (1 Bft)
26.12.2014 19:46 2,8 C 1,1 C 96 % 1023,8 hPa 0,0 l/m 0 min 0 min 0 W/m 6,3 km/h (2 Bft)
26.12.2014 19:48 2,8 C 1,1 C 96 % 1023,7 hPa 0,0 l/m 0 min 0 min 0 W/m 6,3 km/h (2 Bft)
26.12.2014 19:50 2,8 C 0,6 C 96 % 1023,6 hPa 0,0 l/m 0 min 0 min 0 W/m 6,3 km/h (2 Bft)
26.12.2014 19:52 2,8 C 0,6 C 96 % 1023,6 hPa 0,0 l/m 0 min 0 min 0 W/m 6,3 km/h (2 Bft)
26.12.2014 19:54 2,8 C 0,6 C 96 % 1023,6 hPa 0,0 l/m 0 min 0 min 0 W/m 4,2 km/h (1 Bft)
26.12.2014 19:56 2,7 C 0,6 C 96 % 1023,6 hPa 0,0 l/m 0 min 0 min 0 W/m 6,3 km/h (2 Bft)
26.12.2014 19:58 2,7 C 0,6 C 96 % 1023,6 hPa 0,0 l/m 0 min 0 min 0 W/m 6,3 km/h (2 Bft)
26.12.2014 20:00 2,7 C 0,6 C 96 % 1023,6 hPa 0,0 l/m 0 min 0 min 0 W/m 6,3 km/h (2 Bft)
26.12.2014 20:02 2,7 C 0,6 C 96 % 1023,5 hPa 0,0 l/m 0 min 0 min 0 W/m 6,3 km/h (2 Bft)
26.12.2014 20:04 2,6 C 0,6 C 96 % 1023,5 hPa 0,0 l/m 0 min 0 min 0 W/m 8,4 km/h (2 Bft)
26.12.2014 20:06 2,6 C 0,6 C 96 % 1023,4 hPa 0,0 l/m 0 min 0 min 0 W/m 6,3 km/h (2 Bft)
26.12.2014 20:08 2,6 C 0,6 C 96 % 1023,3 hPa 0,0 l/m 0 min 0 min 0 W/m 6,3 km/h (2 Bft)
26.12.2014 20:10 2,6 C 0,6 C 96 % 1023,3 hPa 0,0 l/m 0 min 0 min 0 W/m 8,4 km/h (2 Bft)
26.12.2014 20:12 2,5 C 0,6 C 96 % 1023,2 hPa 0,0 l/m 0 min 0 min 0 W/m 6,3 km/h (2 Bft)
26.12.2014 20:14 2,4 C 0,6 C 96 % 1023,1 hPa 0,0 l/m 0 min 0 min 0 W/m 6,3 km/h (2 Bft)
26.12.2014 20:16 2,4 C 0,6 C 96 % 1023,1 hPa 0,0 l/m 0 min 0 min 0 W/m 4,2 km/h (1 Bft)
26.12.2014 20:18 2,4 C 0,6 C 96 % 1023,1 hPa 0,0 l/m 0 min 0 min 0 W/m 4,2 km/h (1 Bft)
26.12.2014 20:20 2,4 C 0,6 C 95 % 1023,2 hPa 0,0 l/m 0 min 0 min 0 W/m 6,3 km/h (2 Bft)
26.12.2014 20:22 2,3 C 0,6 C 95 % 1023,1 hPa 0,0 l/m 0 min 0 min 0 W/m 6,3 km/h (2 Bft)
26.12.2014 20:24 2,3 C 0,6 C 96 % 1023,1 hPa 0,0 l/m 0 min 0 min 0 W/m 6,3 km/h (2 Bft)
26.12.2014 20:26 2,3 C 0,6 C 96 % 1023,0 hPa 0,0 l/m 0 min 0 min 0 W/m 6,3 km/h (2 Bft)
26.12.2014 20:28 2,3 C 0,6 C 96 % 1023,0 hPa 0,0 l/m 0 min 0 min 0 W/m 6,3 km/h (2 Bft)
26.12.2014 20:30 2,2 C 0,6 C 96 % 1023,0 hPa 0,0 l/m 0 min 0 min 0 W/m 6,3 km/h (2 Bft)
26.12.2014 20:32 2,2 C 0,6 C 96 % 1022,9 hPa 0,0 l/m 0 min 0 min 0 W/m 8,4 km/h (2 Bft)
26.12.2014 20:34 2,2 C 0,6 C 96 % 1022,9 hPa 0,0 l/m 0 min 0 min 0 W/m 8,4 km/h (2 Bft)
26.12.2014 20:36 2,2 C 0,6 C 96 % 1022,9 hPa 0,0 l/m 0 min 0 min 0 W/m 6,3 km/h (2 Bft)
26.12.2014 20:38 2,1 C 0,0 C 96 % 1022,8 hPa 0,0 l/m 0 min 0 min 0 W/m 6,3 km/h (2 Bft)
26.12.2014 20:40 2,1 C 0,0 C 96 % 1022,9 hPa 0,0 l/m 0 min 0 min 0 W/m 10,5 km/h (2 Bft)
26.12.2014 20:42 2,1 C 0,0 C 96 % 1022,7 hPa 0,0 l/m 0 min 0 min 0 W/m 8,4 km/h (2 Bft)
26.12.2014 20:44 2,0 C 0,0 C 95 % 1022,7 hPa 0,0 l/m 0 min 0 min 0 W/m 6,3 km/h (2 Bft)
26.12.2014 20:46 2,0 C 0,0 C 95 % 1022,6 hPa 0,0 l/m 0 min 0 min 0 W/m 8,4 km/h (2 Bft)
26.12.2014 20:48 1,9 C 0,0 C 96 % 1022,6 hPa 0,0 l/m 0 min 0 min 0 W/m 8,4 km/h (2 Bft)
26.12.2014 20:50 1,9 C 0,0 C 96 % 1022,4 hPa 0,0 l/m 0 min 0 min 0 W/m 8,4 km/h (2 Bft)
26.12.2014 20:52 1,9 C 0,0 C 96 % 1022,4 hPa 0,0 l/m 0 min 0 min 0 W/m 8,4 km/h (2 Bft)
26.12.2014 20:54 1,9 C 0,0 C 96 % 1022,2 hPa 0,0 l/m 0 min 0 min 0 W/m 10,5 km/h (2 Bft)
26.12.2014 20:56 1,9 C 0,0 C 96 % 1022,1 hPa 0,0 l/m 0 min 0 min 0 W/m 8,4 km/h (2 Bft)
26.12.2014 20:58 1,8 C 0,6 C 96 % 1022,1 hPa 0,0 l/m 0 min 0 min 0 W/m 8,4 km/h (2 Bft)
26.12.2014 21:00 1,8 C 0,6 C 96 % 1022,0 hPa 0,0 l/m 0 min 0 min 0 W/m 8,4 km/h (2 Bft)
26.12.2014 21:02 1,8 C 0,6 C 96 % 1021,9 hPa 0,0 l/m 0 min 0 min 0 W/m 8,4 km/h (2 Bft)
26.12.2014 21:04 1,8 C 0,6 C 96 % 1021,9 hPa 0,0 l/m 0 min 0 min 0 W/m 8,4 km/h (2 Bft)
26.12.2014 21:06 1,8 C 0,6 C 96 % 1021,8 hPa 0,0 l/m 0 min 0 min 0 W/m 8,4 km/h (2 Bft)
26.12.2014 21:08 1,8 C 0,6 C 96 % 1021,8 hPa 0,0 l/m 0 min 0 min 0 W/m 8,4 km/h (2 Bft)
26.12.2014 21:10 1,7 C 0,6 C 96 % 1021,8 hPa 0,0 l/m 0 min 0 min 0 W/m 10,5 km/h (2 Bft)
26.12.2014 21:12 1,7 C 0,6 C 96 % 1021,7 hPa 0,0 l/m 0 min 0 min 0 W/m 8,4 km/h (2 Bft)
26.12.2014 21:14 1,7 C 0,6 C 96 % 1021,7 hPa 0,0 l/m 0 min 0 min 0 W/m 8,4 km/h (2 Bft)
26.12.2014 21:16 1,7 C 0,6 C 96 % 1021,6 hPa 0,0 l/m 0 min 0 min 0 W/m 8,4 km/h (2 Bft)
26.12.2014 21:18 1,7 C 0,0 C 96 % 1021,5 hPa 0,0 l/m 0 min 0 min 0 W/m 8,4 km/h (2 Bft)
26.12.2014 21:20 1,7 C 0,0 C 96 % 1021,4 hPa 0,0 l/m 0 min 0 min 0 W/m 6,3 km/h (2 Bft)
26.12.2014 21:22 1,7 C 0,6 C 96 % 1021,3 hPa 0,0 l/m 0 min 0 min 0 W/m 8,4 km/h (2 Bft)
26.12.2014 21:24 1,7 C 0,6 C 96 % 1021,3 hPa 0,0 l/m 0 min 0 min 0 W/m 8,4 km/h (2 Bft)
26.12.2014 21:26 1,6 C 0,6 C 96 % 1021,3 hPa 0,0 l/m 0 min 0 min 0 W/m 8,4 km/h (2 Bft)
26.12.2014 21:28 1,6 C 0,6 C 96 % 1021,2 hPa 0,0 l/m 0 min 0 min 0 W/m 8,4 km/h (2 Bft)
26.12.2014 21:30 1,6 C 0,6 C 96 % 1021,2 hPa 0,0 l/m 0 min 0 min 0 W/m 8,4 km/h (2 Bft)
26.12.2014 21:32 1,6 C 0,0 C 96 % 1021,2 hPa 0,0 l/m 0 min 0 min 0 W/m 12,6 km/h (3 Bft)
26.12.2014 21:34 1,6 C 0,0 C 96 % 1021,1 hPa 0,0 l/m 0 min 0 min 0 W/m 10,5 km/h (2 Bft)
26.12.2014 21:36 1,6 C 0,0 C 96 % 1021,1 hPa 0,0 l/m 0 min 0 min 0 W/m 10,5 km/h (2 Bft)
26.12.2014 21:38 1,6 C 0,0 C 96 % 1021,1 hPa 0,0 l/m 0 min 0 min 0 W/m 12,6 km/h (3 Bft)
26.12.2014 21:40 1,6 C 0,0 C 96 % 1021,0 hPa 0,0 l/m 0 min 0 min 0 W/m 12,6 km/h (3 Bft)
26.12.2014 21:42 1,6 C 0,0 C 96 % 1020,9 hPa 0,0 l/m 0 min 0 min 0 W/m 12,6 km/h (3 Bft)
26.12.2014 21:44 1,6 C 0,0 C 96 % 1020,9 hPa 0,0 l/m 0 min 0 min 0 W/m 12,6 km/h (3 Bft)
26.12.2014 21:46 1,5 C 0,0 C 96 % 1020,8 hPa 0,0 l/m 0 min 0 min 0 W/m 12,6 km/h (3 Bft)
26.12.2014 21:48 1,5 C 0,6 C 96 % 1020,8 hPa 0,0 l/m 0 min 0 min 0 W/m 14,6 km/h (3 Bft)
26.12.2014 21:50 1,5 C 0,6 C 96 % 1020,8 hPa 0,0 l/m 0 min 0 min 0 W/m 12,6 km/h (3 Bft)
26.12.2014 21:52 1,5 C 0,6 C 96 % 1020,8 hPa 0,0 l/m 0 min 0 min 0 W/m 12,6 km/h (3 Bft)
26.12.2014 21:54 1,5 C 0,6 C 96 % 1020,7 hPa 0,0 l/m 0 min 0 min 0 W/m 16,7 km/h (3 Bft)
26.12.2014 21:56 1,5 C 0,6 C 96 % 1020,6 hPa 0,0 l/m 0 min 0 min 0 W/m 18,8 km/h (3 Bft)
26.12.2014 21:58 1,5 C 0,6 C 96 % 1020,6 hPa 0,0 l/m 0 min 0 min 0 W/m 10,5 km/h (2 Bft)
26.12.2014 22:00 1,5 C 0,6 C 96 % 1020,5 hPa 0,0 l/m 0 min 0 min 0 W/m 12,6 km/h (3 Bft)
26.12.2014 22:02 1,5 C 0,6 C 96 % 1020,5 hPa 0,0 l/m 0 min 0 min 0 W/m 12,6 km/h (3 Bft)
26.12.2014 22:04 1,5 C 0,6 C 96 % 1020,5 hPa 0,0 l/m 0 min 0 min 0 W/m 12,6 km/h (3 Bft)
26.12.2014 22:06 1,5 C 0,6 C 96 % 1020,4 hPa 0,0 l/m 0 min 0 min 0 W/m 16,7 km/h (3 Bft)
26.12.2014 22:08 1,5 C 0,6 C 96 % 1020,4 hPa 0,0 l/m 0 min 0 min 0 W/m 12,6 km/h (3 Bft)
26.12.2014 22:10 1,5 C 0,6 C 96 % 1020,4 hPa 0,0 l/m 0 min 0 min 0 W/m 12,6 km/h (3 Bft)
26.12.2014 22:12 1,5 C 0,6 C 96 % 1020,4 hPa 0,0 l/m 0 min 0 min 0 W/m 14,6 km/h (3 Bft)
26.12.2014 22:14 1,4 C 0,6 C 96 % 1020,3 hPa 0,0 l/m 0 min 0 min 0 W/m 14,6 km/h (3 Bft)
26.12.2014 22:16 1,5 C 0,6 C 96 % 1020,3 hPa 0,0 l/m 0 min 0 min 0 W/m 14,6 km/h (3 Bft)
26.12.2014 22:18 1,4 C 0,6 C 96 % 1020,3 hPa 0,0 l/m 0 min 0 min 0 W/m 12,6 km/h (3 Bft)
26.12.2014 22:20 1,4 C 0,6 C 96 % 1020,2 hPa 0,0 l/m 0 min 0 min 0 W/m 14,6 km/h (3 Bft)
26.12.2014 22:22 1,4 C 0,6 C 96 % 1020,2 hPa 0,0 l/m 0 min 0 min 0 W/m 10,5 km/h (2 Bft)
26.12.2014 22:24 1,4 C 0,6 C 96 % 1020,2 hPa 0,0 l/m 0 min 0 min 0 W/m 12,6 km/h (3 Bft)
26.12.2014 22:26 1,4 C 0,6 C 96 % 1020,1 hPa 0,0 l/m 0 min 0 min 0 W/m 10,5 km/h (2 Bft)
26.12.2014 22:28 1,4 C 0,6 C 96 % 1020,0 hPa 0,0 l/m 0 min 0 min 0 W/m 10,5 km/h (2 Bft)
26.12.2014 22:30 1,4 C 0,6 C 96 % 1020,0 hPa 0,0 l/m 0 min 0 min 0 W/m 14,6 km/h (3 Bft)
26.12.2014 22:32 1,4 C 0,6 C 96 % 1020,0 hPa 0,0 l/m 0 min 0 min 0 W/m 12,6 km/h (3 Bft)
26.12.2014 22:34 1,4 C 0,6 C 96 % 1019,9 hPa 0,0 l/m 0 min 0 min 0 W/m 8,4 km/h (2 Bft)
26.12.2014 22:36 1,5 C 0,6 C 96 % 1019,8 hPa 0,0 l/m 0 min 0 min 0 W/m 14,6 km/h (3 Bft)
26.12.2014 22:38 1,5 C 0,6 C 96 % 1019,8 hPa 0,0 l/m 0 min 0 min 0 W/m 14,6 km/h (3 Bft)
26.12.2014 22:40 1,5 C 0,6 C 96 % 1019,7 hPa 0,0 l/m 0 min 0 min 0 W/m 12,6 km/h (3 Bft)
26.12.2014 22:42 1,5 C 0,6 C 96 % 1019,7 hPa 0,0 l/m 0 min 0 min 0 W/m 12,6 km/h (3 Bft)
26.12.2014 22:44 1,5 C 0,6 C 96 % 1019,6 hPa 0,0 l/m 0 min 0 min 0 W/m 14,6 km/h (3 Bft)
26.12.2014 22:46 1,5 C 0,6 C 96 % 1019,5 hPa 0,0 l/m 0 min 0 min 0 W/m 14,6 km/h (3 Bft)
26.12.2014 22:48 1,6 C 0,6 C 96 % 1019,5 hPa 0,0 l/m 0 min 0 min 0 W/m 14,6 km/h (3 Bft)
26.12.2014 22:50 1,6 C 0,6 C 96 % 1019,5 hPa 0,0 l/m 0 min 0 min 0 W/m 10,5 km/h (2 Bft)
26.12.2014 22:52 1,6 C 0,6 C 96 % 1019,4 hPa 0,0 l/m 0 min 0 min 0 W/m 10,5 km/h (2 Bft)
26.12.2014 22:54 1,6 C 0,6 C 96 % 1019,2 hPa 0,0 l/m 0 min 0 min 0 W/m 12,6 km/h (3 Bft)
26.12.2014 22:56 1,6 C 0,6 C 96 % 1019,1 hPa 0,0 l/m 0 min 0 min 0 W/m 10,5 km/h (2 Bft)
26.12.2014 22:58 1,6 C 1,1 C 96 % 1019,1 hPa 0,0 l/m 0 min 0 min 0 W/m 14,6 km/h (3 Bft)
26.12.2014 23:00 1,6 C 1,1 C 96 % 1019,0 hPa 0,0 l/m 0 min 0 min 0 W/m 12,6 km/h (3 Bft)
26.12.2014 23:02 1,6 C 1,1 C 96 % 1018,9 hPa 0,0 l/m 0 min 0 min 0 W/m 20,9 km/h (4 Bft)
26.12.2014 23:04 1,6 C 1,1 C 96 % 1018,9 hPa 0,0 l/m 0 min 0 min 0 W/m 16,7 km/h (3 Bft)
26.12.2014 23:06 1,7 C 1,1 C 97 % 1018,9 hPa 0,0 l/m 0 min 0 min 0 W/m 18,8 km/h (3 Bft)
26.12.2014 23:08 1,7 C 1,1 C 97 % 1018,9 hPa 0,0 l/m 0 min 0 min 0 W/m 18,8 km/h (3 Bft)
26.12.2014 23:10 1,7 C 1,1 C 97 % 1018,8 hPa 0,0 l/m 0 min 0 min 0 W/m 16,7 km/h (3 Bft)
26.12.2014 23:12 1,7 C 1,1 C 97 % 1018,8 hPa 0,0 l/m 0 min 0 min 0 W/m 14,6 km/h (3 Bft)
26.12.2014 23:14 1,7 C 1,1 C 97 % 1018,7 hPa 0,0 l/m 0 min 0 min 0 W/m 16,7 km/h (3 Bft)
26.12.2014 23:16 1,7 C 1,1 C 97 % 1018,6 hPa 0,0 l/m 0 min 0 min 0 W/m 12,6 km/h (3 Bft)
26.12.2014 23:18 1,8 C 1,1 C 97 % 1018,5 hPa 0,0 l/m 0 min 0 min 0 W/m 12,6 km/h (3 Bft)
26.12.2014 23:20 1,8 C 1,1 C 97 % 1018,5 hPa 0,0 l/m 0 min 0 min 0 W/m 10,5 km/h (2 Bft)
26.12.2014 23:22 1,8 C 1,1 C 97 % 1018,4 hPa 0,0 l/m 0 min 0 min 0 W/m 20,9 km/h (4 Bft)
26.12.2014 23:24 1,8 C 1,1 C 96 % 1018,4 hPa 0,0 l/m 0 min 0 min 0 W/m 16,7 km/h (3 Bft)
26.12.2014 23:26 1,8 C 1,1 C 96 % 1018,4 hPa 0,0 l/m 0 min 0 min 0 W/m 10,5 km/h (2 Bft)
26.12.2014 23:28 1,8 C 1,1 C 96 % 1018,2 hPa 0,0 l/m 0 min 0 min 0 W/m 12,6 km/h (3 Bft)
26.12.2014 23:30 1,8 C 1,1 C 96 % 1018,2 hPa 0,0 l/m 0 min 0 min 0 W/m 14,6 km/h (3 Bft)
26.12.2014 23:32 1,9 C 1,1 C 96 % 1018,1 hPa 0,0 l/m 0 min 0 min 0 W/m 14,6 km/h (3 Bft)
26.12.2014 23:34 1,9 C 1,1 C 96 % 1018,0 hPa 0,0 l/m 0 min 0 min 0 W/m 10,5 km/h (2 Bft)
26.12.2014 23:36 1,9 C 1,1 C 96 % 1017,9 hPa 0,0 l/m 0 min 0 min 0 W/m 16,7 km/h (3 Bft)
26.12.2014 23:38 1,9 C 1,1 C 96 % 1017,8 hPa 0,0 l/m 0 min 0 min 0 W/m 18,8 km/h (3 Bft)
26.12.2014 23:40 1,9 C 1,1 C 96 % 1017,7 hPa 0,0 l/m 0 min 0 min 0 W/m 14,6 km/h (3 Bft)
26.12.2014 23:42 1,9 C 1,1 C 96 % 1017,6 hPa 0,0 l/m 0 min 0 min 0 W/m 20,9 km/h (4 Bft)
26.12.2014 23:44 1,9 C 1,1 C 96 % 1017,5 hPa 0,0 l/m 0 min 0 min 0 W/m 16,7 km/h (3 Bft)
26.12.2014 23:46 1,9 C 1,1 C 96 % 1017,4 hPa 0,0 l/m 0 min 0 min 0 W/m 16,7 km/h (3 Bft)
26.12.2014 23:48 1,9 C 1,1 C 96 % 1017,3 hPa 0,0 l/m 0 min 0 min 0 W/m 14,6 km/h (3 Bft)
26.12.2014 23:50 1,9 C 1,1 C 96 % 1017,2 hPa 0,0 l/m 0 min 0 min 0 W/m 20,9 km/h (4 Bft)
26.12.2014 23:52 1,9 C 1,1 C 96 % 1017,2 hPa 0,0 l/m 0 min 0 min 0 W/m 18,8 km/h (3 Bft)
26.12.2014 23:54 1,9 C 1,1 C 96 % 1017,1 hPa 0,0 l/m 0 min 0 min 0 W/m 16,7 km/h (3 Bft)
26.12.2014 23:56 1,9 C 1,1 C 96 % 1017,1 hPa 0,0 l/m 0 min 0 min 0 W/m 14,6 km/h (3 Bft)
26.12.2014 23:58 1,9 C 1,1 C 96 % 1017,0 hPa 0,0 l/m 0 min 0 min 0 W/m 14,6 km/h (3 Bft)
_ Min-Zeit 02:44 01:38 16:08 23:58 - - - - 08:34
Minimum _ 0,8 C -0,6 C 95 % 1017,0 hPa - - - - 2,1 km/h (1 Bft)
_ Max-Zeit 13:14 13:00 07:50 10:48 03:44 09:52 03:38 11:18 23:02
Maximum _ 4,4 C 3,3 C 98 % 1029,6 hPa 0,2 l/m 2 min 2 min 241 W/m 20,9 km/h
S-SW (4 Bft)
Durchschnitt _ 2,3 C 1,2 C 97 % 1026,7 hPa #0,4 l/m #2:22 h #1:02 h 90 W/m 8,9 km/h (2 Bft)
© 2015 W. Hausmann